Wetterdaten: Montag, 28.09.2020
Datum Zeit Temp. Aussen Temp. o. S. Temp +5cm Feuchte Auss Luftdruck Regen Sonnenschein Regendauer Solar Windben Empfang
28.09.2020 00:00 10,2 C 10,0 C 9,4 C 94 % 1008,3 hPa 0,0 l/m 0 min 0 min 0 W/m 0,0 km/h (0 Bft) 97,83 %
28.09.2020 00:02 10,2 C 10,0 C 9,4 C 95 % 1008,3 hPa 0,0 l/m 0 min 0 min 0 W/m 0,0 km/h (0 Bft) 95,24 %
28.09.2020 00:04 10,3 C 10,6 C 9,4 C 95 % 1008,4 hPa 0,0 l/m 0 min 0 min 0 W/m 0,0 km/h (0 Bft) 95,74 %
28.09.2020 00:07 10,3 C 10,6 C 9,4 C 95 % 1008,3 hPa 0,0 l/m 0 min 0 min 0 W/m 3,2 km/h (1 Bft) 97,14 %
28.09.2020 00:08 10,3 C 10,6 C 9,4 C 95 % 1008,3 hPa 0,0 l/m 0 min 0 min 0 W/m 0,0 km/h (0 Bft) 100,00 %
28.09.2020 00:10 10,3 C 10,6 C 9,4 C 95 % 1008,3 hPa 0,0 l/m 0 min 0 min 0 W/m 0,0 km/h (0 Bft) 97,87 %
28.09.2020 00:12 10,4 C 10,6 C 9,4 C 95 % 1008,4 hPa 0,0 l/m 0 min 0 min 0 W/m 3,2 km/h (1 Bft) 95,65 %
28.09.2020 00:14 10,4 C 10,6 C 9,4 C 95 % 1008,4 hPa 0,0 l/m 0 min 0 min 0 W/m 3,2 km/h (1 Bft) 97,87 %
28.09.2020 00:16 10,4 C 10,6 C 9,4 C 95 % 1008,4 hPa 0,0 l/m 0 min 0 min 0 W/m 3,2 km/h (1 Bft) 95,74 %
28.09.2020 00:18 10,4 C 10,6 C 9,4 C 95 % 1008,4 hPa 0,0 l/m 0 min 0 min 0 W/m 3,2 km/h (1 Bft) 97,87 %
28.09.2020 00:20 10,5 C 10,6 C 9,4 C 95 % 1008,3 hPa 0,0 l/m 0 min 0 min 0 W/m 3,2 km/h (1 Bft) 97,87 %
28.09.2020 00:22 10,5 C 10,6 C 9,4 C 95 % 1008,3 hPa 0,0 l/m 0 min 2 min 0 W/m 3,2 km/h (1 Bft) 95,65 %
28.09.2020 00:24 10,6 C 10,6 C 9,4 C 96 % 1008,3 hPa 0,0 l/m 0 min 0 min 0 W/m 0,0 km/h (0 Bft) 95,74 %
28.09.2020 00:26 10,6 C 10,6 C 9,4 C 96 % 1008,3 hPa 0,0 l/m 0 min 0 min 0 W/m 0,0 km/h (0 Bft) 91,49 %
28.09.2020 00:28 10,6 C 10,6 C 9,4 C 96 % 1008,3 hPa 0,0 l/m 0 min 0 min 0 W/m 0,0 km/h (0 Bft) 95,74 %
28.09.2020 00:30 10,6 C 10,6 C 9,4 C 96 % 1008,2 hPa 0,0 l/m 0 min 0 min 0 W/m 0,0 km/h (0 Bft) 97,87 %
28.09.2020 00:32 10,6 C 10,6 C 9,4 C 96 % 1008,2 hPa 0,0 l/m 0 min 0 min 0 W/m 0,0 km/h (0 Bft) 97,87 %
28.09.2020 00:34 10,6 C 10,6 C 9,4 C 96 % 1008,3 hPa 0,0 l/m 0 min 0 min 0 W/m 0,0 km/h (0 Bft) 97,83 %
28.09.2020 00:36 10,6 C 10,6 C 9,4 C 96 % 1008,3 hPa 0,0 l/m 0 min 0 min 0 W/m 0,0 km/h (0 Bft) 93,62 %
28.09.2020 00:38 10,7 C 10,6 C 9,4 C 96 % 1008,3 hPa 0,0 l/m 0 min 0 min 0 W/m 0,0 km/h (0 Bft) 95,74 %
28.09.2020 00:40 10,7 C 10,6 C 9,4 C 96 % 1008,3 hPa 0,0 l/m 0 min 0 min 0 W/m 0,0 km/h (0 Bft) 97,87 %
28.09.2020 00:42 10,7 C 10,0 C 9,4 C 96 % 1008,3 hPa 0,0 l/m 0 min 0 min 0 W/m 0,0 km/h (0 Bft) 97,87 %
28.09.2020 00:44 10,7 C 10,0 C 9,4 C 96 % 1008,3 hPa 0,0 l/m 0 min 0 min 0 W/m 0,0 km/h (0 Bft) 95,74 %
28.09.2020 00:46 10,7 C 10,0 C 9,4 C 96 % 1008,2 hPa 0,0 l/m 0 min 0 min 0 W/m 0,0 km/h (0 Bft) 93,48 %
28.09.2020 00:48 10,7 C 10,0 C 9,4 C 96 % 1008,3 hPa 0,0 l/m 0 min 0 min 0 W/m 0,0 km/h (0 Bft) 95,74 %
28.09.2020 00:50 10,7 C 10,6 C 9,4 C 96 % 1008,3 hPa 0,0 l/m 0 min 0 min 0 W/m 0,0 km/h (0 Bft) 95,74 %
28.09.2020 00:52 10,7 C 10,6 C 9,4 C 96 % 1008,3 hPa 0,0 l/m 0 min 0 min 0 W/m 0,0 km/h (0 Bft) 95,74 %
28.09.2020 00:54 10,7 C 10,6 C 9,4 C 96 % 1008,4 hPa 0,0 l/m 0 min 0 min 0 W/m 0,0 km/h (0 Bft) 95,74 %
28.09.2020 00:56 10,7 C 10,6 C 9,4 C 96 % 1008,4 hPa 0,0 l/m 0 min 0 min 0 W/m 0,0 km/h (0 Bft) 91,49 %
28.09.2020 00:58 10,8 C 10,6 C 9,4 C 96 % 1008,3 hPa 0,0 l/m 0 min 0 min 0 W/m 3,2 km/h (1 Bft) 95,92 %
28.09.2020 01:00 10,8 C 10,6 C 10,0 C 96 % 1008,4 hPa 0,0 l/m 0 min 0 min 0 W/m 3,2 km/h (1 Bft) 95,74 %
28.09.2020 01:02 10,8 C 10,6 C 10,0 C 96 % 1008,3 hPa 0,0 l/m 0 min 0 min 0 W/m 0,0 km/h (0 Bft) 93,62 %
28.09.2020 01:04 10,8 C 10,6 C 10,0 C 96 % 1008,4 hPa 0,0 l/m 0 min 0 min 0 W/m 0,0 km/h (0 Bft) 95,65 %
28.09.2020 01:06 10,8 C 10,6 C 10,0 C 96 % 1008,4 hPa 0,0 l/m 0 min 0 min 0 W/m 9,7 km/h (2 Bft) 95,74 %
28.09.2020 01:08 10,8 C 10,6 C 10,0 C 96 % 1008,5 hPa 0,0 l/m 0 min 0 min 0 W/m 3,2 km/h (1 Bft) 95,74 %
28.09.2020 01:10 10,8 C 10,6 C 10,0 C 96 % 1008,4 hPa 0,0 l/m 0 min 0 min 0 W/m 0,0 km/h (0 Bft) 95,65 %
28.09.2020 01:12 10,8 C 10,6 C 10,0 C 96 % 1008,5 hPa 0,0 l/m 0 min 0 min 0 W/m 0,0 km/h (0 Bft) 97,87 %
28.09.2020 01:14 10,8 C 10,6 C 10,0 C 96 % 1008,5 hPa 0,0 l/m 0 min 0 min 0 W/m 0,0 km/h (0 Bft) 97,87 %
28.09.2020 01:16 10,8 C 10,6 C 10,0 C 96 % 1008,5 hPa 0,0 l/m 0 min 0 min 0 W/m 0,0 km/h (0 Bft) 97,87 %
28.09.2020 01:18 10,9 C 10,6 C 10,0 C 96 % 1008,5 hPa 0,0 l/m 0 min 0 min 0 W/m 0,0 km/h (0 Bft) 97,87 %
28.09.2020 01:20 10,9 C 10,6 C 10,0 C 96 % 1008,5 hPa 0,0 l/m 0 min 0 min 0 W/m 0,0 km/h (0 Bft) 97,87 %
28.09.2020 01:22 10,9 C 10,6 C 10,0 C 96 % 1008,5 hPa 0,0 l/m 0 min 0 min 0 W/m 0,0 km/h (0 Bft) 97,83 %
28.09.2020 01:24 10,9 C 10,6 C 10,0 C 96 % 1008,5 hPa 0,0 l/m 0 min 0 min 0 W/m 0,0 km/h (0 Bft) 97,87 %
28.09.2020 01:26 10,9 C 10,6 C 10,0 C 96 % 1008,4 hPa 0,0 l/m 0 min 0 min 0 W/m 0,0 km/h (0 Bft) 95,74 %
28.09.2020 01:28 10,9 C 10,6 C 10,0 C 96 % 1008,4 hPa 0,0 l/m 0 min 0 min 0 W/m 0,0 km/h (0 Bft) 100,00 %
28.09.2020 01:30 10,9 C 10,6 C 10,0 C 96 % 1008,5 hPa 0,0 l/m 0 min 0 min 0 W/m 3,2 km/h (1 Bft) 100,00 %
28.09.2020 01:32 10,9 C 10,6 C 10,0 C 96 % 1008,5 hPa 0,0 l/m 0 min 0 min 0 W/m 0,0 km/h (0 Bft) 100,00 %
28.09.2020 01:34 10,9 C 10,6 C 10,0 C 96 % 1008,6 hPa 0,0 l/m 0 min 0 min 0 W/m 9,7 km/h (2 Bft) 100,00 %
28.09.2020 01:36 10,9 C 10,6 C 10,0 C 96 % 1008,5 hPa 0,0 l/m 0 min 0 min 0 W/m 0,0 km/h (0 Bft) 100,00 %
28.09.2020 01:38 10,9 C 10,6 C 10,0 C 96 % 1008,5 hPa 0,0 l/m 0 min 0 min 0 W/m 6,4 km/h (2 Bft) 100,00 %
28.09.2020 01:40 10,9 C 10,6 C 10,0 C 96 % 1008,5 hPa 0,0 l/m 0 min 0 min 0 W/m 3,2 km/h (1 Bft) 100,00 %
28.09.2020 01:42 10,9 C 10,6 C 10,0 C 96 % 1008,5 hPa 0,0 l/m 0 min 0 min 0 W/m 3,2 km/h (1 Bft) 100,00 %
28.09.2020 01:44 10,9 C 10,6 C 10,0 C 96 % 1008,5 hPa 0,0 l/m 0 min 0 min 0 W/m 3,2 km/h (1 Bft) 100,00 %
28.09.2020 01:46 10,9 C 10,6 C 10,0 C 96 % 1008,5 hPa 0,0 l/m 0 min 0 min 0 W/m 0,0 km/h (0 Bft) 100,00 %
28.09.2020 01:48 10,9 C 10,6 C 10,0 C 96 % 1008,5 hPa 0,0 l/m 0 min 2 min 0 W/m 3,2 km/h (1 Bft) 100,00 %
28.09.2020 01:50 10,9 C 10,6 C 10,0 C 96 % 1008,5 hPa 0,0 l/m 0 min 0 min 0 W/m 3,2 km/h (1 Bft) 100,00 %
28.09.2020 01:52 10,9 C 10,6 C 10,0 C 96 % 1008,5 hPa 0,0 l/m 0 min 0 min 0 W/m 0,0 km/h (0 Bft) 100,00 %
28.09.2020 01:54 11,0 C 10,6 C 10,0 C 96 % 1008,5 hPa 0,0 l/m 0 min 0 min 0 W/m 6,4 km/h (2 Bft) 100,00 %
28.09.2020 01:56 11,0 C 10,6 C 10,0 C 96 % 1008,5 hPa 0,0 l/m 0 min 0 min 0 W/m 0,0 km/h (0 Bft) 100,00 %
28.09.2020 01:58 11,0 C 10,6 C 10,0 C 96 % 1008,5 hPa 0,0 l/m 0 min 0 min 0 W/m 0,0 km/h (0 Bft) 100,00 %
28.09.2020 02:00 11,0 C 10,6 C 10,0 C 96 % 1008,5 hPa 0,0 l/m 0 min 0 min 0 W/m 0,0 km/h (0 Bft) 100,00 %
28.09.2020 02:02 11,0 C 10,6 C 10,0 C 96 % 1008,5 hPa 0,0 l/m 0 min 0 min 0 W/m 0,0 km/h (0 Bft) 100,00 %
28.09.2020 02:04 11,0 C 10,6 C 10,0 C 96 % 1008,5 hPa 0,0 l/m 0 min 0 min 0 W/m 0,0 km/h (0 Bft) 100,00 %
28.09.2020 02:06 11,0 C 10,6 C 10,0 C 96 % 1008,5 hPa 0,0 l/m 0 min 0 min 0 W/m 0,0 km/h (0 Bft) 100,00 %
28.09.2020 02:08 11,1 C 10,6 C 10,0 C 96 % 1008,5 hPa 0,0 l/m 0 min 0 min 0 W/m 0,0 km/h (0 Bft) 100,00 %
28.09.2020 02:10 11,0 C 10,6 C 10,0 C 96 % 1008,4 hPa 0,0 l/m 0 min 0 min 0 W/m 0,0 km/h (0 Bft) 100,00 %
28.09.2020 02:12 11,0 C 10,6 C 10,0 C 96 % 1008,4 hPa 0,0 l/m 0 min 0 min 0 W/m 0,0 km/h (0 Bft) 100,00 %
28.09.2020 02:14 11,1 C 10,6 C 10,0 C 96 % 1008,4 hPa 0,0 l/m 0 min 0 min 0 W/m 0,0 km/h (0 Bft) 100,00 %
28.09.2020 02:16 11,1 C 10,6 C 10,0 C 96 % 1008,4 hPa 0,0 l/m 0 min 0 min 0 W/m 0,0 km/h (0 Bft) 100,00 %
28.09.2020 02:18 11,1 C 10,6 C 10,0 C 96 % 1008,3 hPa 0,0 l/m 0 min 0 min 0 W/m 0,0 km/h (0 Bft) 100,00 %
28.09.2020 02:20 11,1 C 10,6 C 10,0 C 96 % 1008,3 hPa 0,0 l/m 0 min 0 min 0 W/m 0,0 km/h (0 Bft) 100,00 %
28.09.2020 02:22 11,1 C 10,6 C 10,0 C 96 % 1008,3 hPa 0,0 l/m 0 min 0 min 0 W/m 0,0 km/h (0 Bft) 100,00 %
28.09.2020 02:24 11,1 C 10,6 C 10,0 C 96 % 1008,3 hPa 0,0 l/m 0 min 0 min 0 W/m 0,0 km/h (0 Bft) 100,00 %
28.09.2020 02:26 11,1 C 10,6 C 10,0 C 96 % 1008,5 hPa 0,0 l/m 0 min 0 min 0 W/m 0,0 km/h (0 Bft) 100,00 %
28.09.2020 02:28 11,1 C 10,6 C 10,0 C 96 % 1008,5 hPa 0,0 l/m 0 min 0 min 0 W/m 0,0 km/h (0 Bft) 100,00 %
28.09.2020 02:30 11,1 C 10,6 C 10,0 C 96 % 1008,4 hPa 0,0 l/m 0 min 0 min 0 W/m 0,0 km/h (0 Bft) 100,00 %
28.09.2020 02:32 11,1 C 10,6 C 10,0 C 96 % 1008,3 hPa 0,0 l/m 0 min 0 min 0 W/m 0,0 km/h (0 Bft) 100,00 %
28.09.2020 02:34 11,1 C 10,6 C 10,0 C 96 % 1008,3 hPa 0,0 l/m 0 min 0 min 0 W/m 0,0 km/h (0 Bft) 100,00 %
28.09.2020 02:36 11,1 C 10,6 C 10,0 C 96 % 1008,3 hPa 0,0 l/m 0 min 0 min 0 W/m 0,0 km/h (0 Bft) 97,83 %
28.09.2020 02:38 11,1 C 10,6 C 10,0 C 96 % 1008,3 hPa 0,0 l/m 0 min 0 min 0 W/m 0,0 km/h (0 Bft) 100,00 %
28.09.2020 02:40 11,1 C 10,6 C 10,0 C 96 % 1008,3 hPa 0,0 l/m 0 min 0 min 0 W/m 0,0 km/h (0 Bft) 100,00 %
28.09.2020 02:42 11,1 C 10,6 C 10,0 C 96 % 1008,3 hPa 0,0 l/m 0 min 0 min 0 W/m 0,0 km/h (0 Bft) 100,00 %
28.09.2020 02:44 11,1 C 10,6 C 10,0 C 95 % 1008,3 hPa 0,0 l/m 0 min 0 min 0 W/m 0,0 km/h (0 Bft) 97,87 %
28.09.2020 02:46 11,1 C 10,6 C 10,0 C 95 % 1008,3 hPa 0,0 l/m 0 min 0 min 0 W/m 0,0 km/h (0 Bft) 100,00 %
28.09.2020 02:48 11,1 C 10,6 C 10,0 C 95 % 1008,3 hPa 0,0 l/m 0 min 0 min 0 W/m 0,0 km/h (0 Bft) 100,00 %
28.09.2020 02:50 11,1 C 10,6 C 10,0 C 95 % 1008,3 hPa 0,0 l/m 0 min 0 min 0 W/m 0,0 km/h (0 Bft) 100,00 %
28.09.2020 02:52 11,1 C 10,6 C 10,0 C 95 % 1008,3 hPa 0,0 l/m 0 min 0 min 0 W/m 0,0 km/h (0 Bft) 100,00 %
28.09.2020 02:54 11,1 C 10,6 C 10,0 C 95 % 1008,3 hPa 0,0 l/m 0 min 0 min 0 W/m 0,0 km/h (0 Bft) 100,00 %
28.09.2020 02:56 11,1 C 10,6 C 10,0 C 95 % 1008,2 hPa 0,0 l/m 0 min 0 min 0 W/m 0,0 km/h (0 Bft) 100,00 %
28.09.2020 02:58 11,1 C 10,6 C 10,0 C 95 % 1008,3 hPa 0,0 l/m 0 min 0 min 0 W/m 0,0 km/h (0 Bft) 100,00 %
28.09.2020 03:00 11,1 C 10,6 C 10,0 C 95 % 1008,3 hPa 0,0 l/m 0 min 0 min 0 W/m 0,0 km/h (0 Bft) 100,00 %
28.09.2020 03:02 11,1 C 10,6 C 10,0 C 95 % 1008,2 hPa 0,0 l/m 0 min 0 min 0 W/m 0,0 km/h (0 Bft) 97,87 %
28.09.2020 03:04 11,1 C 10,6 C 10,0 C 95 % 1008,3 hPa 0,0 l/m 0 min 0 min 0 W/m 0,0 km/h (0 Bft) 100,00 %
28.09.2020 03:06 11,1 C 10,6 C 10,0 C 95 % 1008,3 hPa 0,0 l/m 0 min 0 min 0 W/m 0,0 km/h (0 Bft) 100,00 %
28.09.2020 03:08 11,1 C 10,6 C 10,0 C 95 % 1008,3 hPa 0,0 l/m 0 min 0 min 0 W/m 0,0 km/h (0 Bft) 100,00 %
28.09.2020 03:10 11,1 C 10,6 C 10,0 C 95 % 1008,2 hPa 0,0 l/m 0 min 0 min 0 W/m 0,0 km/h (0 Bft) 97,87 %
28.09.2020 03:12 11,1 C 10,6 C 10,0 C 95 % 1008,2 hPa 0,0 l/m 0 min 0 min 0 W/m 0,0 km/h (0 Bft) 95,74 %
28.09.2020 03:14 11,1 C 10,6 C 10,0 C 95 % 1008,2 hPa 0,0 l/m 0 min 0 min 0 W/m 0,0 km/h (0 Bft) 95,74 %
28.09.2020 03:16 11,1 C 10,6 C 10,0 C 95 % 1008,2 hPa 0,0 l/m 0 min 0 min 0 W/m 0,0 km/h (0 Bft) 95,65 %
28.09.2020 03:18 11,1 C 10,6 C 10,0 C 95 % 1008,2 hPa 0,0 l/m 0 min 0 min 0 W/m 0,0 km/h (0 Bft) 95,74 %
28.09.2020 03:20 11,1 C 10,6 C 10,0 C 95 % 1008,2 hPa 0,0 l/m 0 min 0 min 0 W/m 0,0 km/h (0 Bft) 93,62 %
28.09.2020 03:22 11,1 C 10,6 C 10,0 C 95 % 1008,2 hPa 0,0 l/m 0 min 0 min 0 W/m 0,0 km/h (0 Bft) 93,62 %
28.09.2020 03:24 11,1 C 10,6 C 10,0 C 95 % 1008,1 hPa 0,0 l/m 0 min 0 min 0 W/m 0,0 km/h (0 Bft) 93,62 %
28.09.2020 03:26 11,1 C 10,6 C 10,0 C 95 % 1008,1 hPa 0,0 l/m 0 min 0 min 0 W/m 0,0 km/h (0 Bft) 89,36 %
28.09.2020 03:28 11,1 C 10,6 C 10,0 C 95 % 1008,1 hPa 0,0 l/m 0 min 0 min 0 W/m 0,0 km/h (0 Bft) 93,48 %
28.09.2020 03:30 11,1 C 10,6 C 10,0 C 95 % 1008,0 hPa 0,0 l/m 0 min 0 min 0 W/m 0,0 km/h (0 Bft) 93,62 %
28.09.2020 03:32 11,1 C 10,6 C 10,0 C 95 % 1008,0 hPa 0,0 l/m 0 min 0 min 0 W/m 0,0 km/h (0 Bft) 91,49 %
28.09.2020 03:34 11,1 C 10,6 C 10,0 C 95 % 1008,1 hPa 0,0 l/m 0 min 0 min 0 W/m 0,0 km/h (0 Bft) 93,62 %
28.09.2020 03:36 11,1 C 10,6 C 10,0 C 95 % 1008,1 hPa 0,0 l/m 0 min 0 min 0 W/m 0,0 km/h (0 Bft) 93,62 %
28.09.2020 03:38 11,1 C 10,6 C 10,0 C 95 % 1008,2 hPa 0,0 l/m 0 min 0 min 0 W/m 0,0 km/h (0 Bft) 93,62 %
28.09.2020 03:40 11,1 C 10,0 C 10,0 C 95 % 1008,3 hPa 0,0 l/m 0 min 0 min 0 W/m 0,0 km/h (0 Bft) 93,48 %
28.09.2020 03:42 11,1 C 10,0 C 10,0 C 95 % 1008,2 hPa 0,0 l/m 0 min 0 min 0 W/m 0,0 km/h (0 Bft) 91,49 %
28.09.2020 03:44 11,1 C 10,0 C 10,0 C 95 % 1008,2 hPa 0,0 l/m 0 min 0 min 0 W/m 0,0 km/h (0 Bft) 93,62 %
28.09.2020 03:46 11,1 C 10,0 C 10,0 C 96 % 1008,3 hPa 0,0 l/m 0 min 0 min 0 W/m 0,0 km/h (0 Bft) 93,62 %
28.09.2020 03:48 11,1 C 10,0 C 10,0 C 96 % 1008,3 hPa 0,0 l/m 0 min 0 min 0 W/m 0,0 km/h (0 Bft) 91,49 %
28.09.2020 03:50 11,1 C 10,0 C 10,0 C 96 % 1008,3 hPa 0,0 l/m 0 min 0 min 0 W/m 0,0 km/h (0 Bft) 91,49 %
28.09.2020 03:52 11,1 C 10,0 C 10,0 C 96 % 1008,2 hPa 0,0 l/m 0 min 0 min 0 W/m 0,0 km/h (0 Bft) 93,48 %
28.09.2020 03:54 11,1 C 10,0 C 9,4 C 96 % 1008,2 hPa 0,0 l/m 0 min 0 min 0 W/m 0,0 km/h (0 Bft) 93,62 %
28.09.2020 03:56 11,1 C 10,0 C 9,4 C 96 % 1008,2 hPa 0,0 l/m 0 min 0 min 0 W/m 0,0 km/h (0 Bft) 95,74 %
28.09.2020 03:58 11,1 C 10,0 C 9,4 C 96 % 1008,3 hPa 0,0 l/m 0 min 0 min 0 W/m 0,0 km/h (0 Bft) 91,49 %
28.09.2020 04:00 11,1 C 10,0 C 9,4 C 96 % 1008,3 hPa 0,0 l/m 0 min 0 min 0 W/m 0,0 km/h (0 Bft) 95,74 %
28.09.2020 04:02 11,1 C 10,0 C 9,4 C 96 % 1008,3 hPa 0,0 l/m 0 min 0 min 0 W/m 3,2 km/h (1 Bft) 97,22 %
28.09.2020 04:04 11,1 C 10,0 C 9,4 C 96 % 1008,3 hPa 0,0 l/m 0 min 0 min 0 W/m 3,2 km/h (1 Bft) 97,83 %
28.09.2020 04:06 11,1 C 10,0 C 9,4 C 96 % 1008,3 hPa 0,0 l/m 0 min 0 min 0 W/m 3,2 km/h (1 Bft) 97,87 %
28.09.2020 04:08 11,1 C 10,0 C 9,4 C 96 % 1008,3 hPa 0,0 l/m 0 min 0 min 0 W/m 3,2 km/h (1 Bft) 95,74 %
28.09.2020 04:10 11,1 C 10,0 C 9,4 C 96 % 1008,3 hPa 0,0 l/m 0 min 0 min 0 W/m 3,2 km/h (1 Bft) 97,87 %
28.09.2020 04:12 11,1 C 10,0 C 9,4 C 96 % 1008,3 hPa 0,0 l/m 0 min 0 min 0 W/m 6,4 km/h (2 Bft) 95,74 %
28.09.2020 04:14 11,1 C 10,0 C 9,4 C 96 % 1008,3 hPa 0,0 l/m 0 min 0 min 0 W/m 0,0 km/h (0 Bft) 97,87 %
28.09.2020 04:16 11,1 C 10,0 C 9,4 C 96 % 1008,3 hPa 0,0 l/m 0 min 0 min 0 W/m 6,4 km/h (2 Bft) 97,83 %
28.09.2020 04:18 11,1 C 10,0 C 9,4 C 96 % 1008,3 hPa 0,0 l/m 0 min 0 min 0 W/m 6,4 km/h (2 Bft) 100,00 %
28.09.2020 04:20 11,1 C 10,0 C 9,4 C 96 % 1008,2 hPa 0,0 l/m 0 min 0 min 0 W/m 6,4 km/h (2 Bft) 95,74 %
28.09.2020 04:22 11,1 C 10,0 C 9,4 C 96 % 1008,3 hPa 0,0 l/m 0 min 0 min 0 W/m 3,2 km/h (1 Bft) 100,00 %
28.09.2020 04:24 11,1 C 10,0 C 9,4 C 96 % 1008,2 hPa 0,0 l/m 0 min 0 min 0 W/m 0,0 km/h (0 Bft) 100,00 %
28.09.2020 04:26 11,1 C 10,0 C 9,4 C 96 % 1008,2 hPa 0,0 l/m 0 min 0 min 0 W/m 0,0 km/h (0 Bft) 100,00 %
28.09.2020 04:28 11,0 C 10,0 C 9,4 C 96 % 1008,2 hPa 0,0 l/m 0 min 0 min 0 W/m 0,0 km/h (0 Bft) 97,83 %
28.09.2020 04:30 11,1 C 10,0 C 9,4 C 96 % 1008,2 hPa 0,0 l/m 0 min 0 min 0 W/m 6,4 km/h (2 Bft) 97,87 %
28.09.2020 04:32 11,0 C 10,0 C 9,4 C 96 % 1008,2 hPa 0,0 l/m 0 min 0 min 0 W/m 0,0 km/h (0 Bft) 100,00 %
28.09.2020 04:34 11,0 C 10,0 C 9,4 C 96 % 1008,3 hPa 0,0 l/m 0 min 0 min 0 W/m 3,2 km/h (1 Bft) 97,87 %
28.09.2020 04:36 11,0 C 10,0 C 10,0 C 96 % 1008,2 hPa 0,0 l/m 0 min 0 min 0 W/m 3,2 km/h (1 Bft) 100,00 %
28.09.2020 04:38 11,0 C 10,0 C 10,0 C 96 % 1008,2 hPa 0,0 l/m 0 min 0 min 0 W/m 3,2 km/h (1 Bft) 97,83 %
28.09.2020 04:40 11,0 C 10,0 C 10,0 C 96 % 1008,2 hPa 0,0 l/m 0 min 0 min 0 W/m 6,4 km/h (2 Bft) 100,00 %
28.09.2020 04:42 11,0 C 10,0 C 10,0 C 96 % 1008,2 hPa 0,0 l/m 0 min 0 min 0 W/m 3,2 km/h (1 Bft) 100,00 %
28.09.2020 04:44 11,0 C 10,0 C 10,0 C 96 % 1008,2 hPa 0,0 l/m 0 min 0 min 0 W/m 6,4 km/h (2 Bft) 100,00 %
28.09.2020 04:46 11,0 C 10,0 C 10,0 C 96 % 1008,2 hPa 0,0 l/m 0 min 0 min 0 W/m 0,0 km/h (0 Bft) 97,87 %
28.09.2020 04:48 11,0 C 10,0 C 10,0 C 96 % 1008,2 hPa 0,0 l/m 0 min 0 min 0 W/m 0,0 km/h (0 Bft) 100,00 %
28.09.2020 04:50 11,0 C 10,0 C 10,0 C 96 % 1008,2 hPa 0,0 l/m 0 min 0 min 0 W/m 0,0 km/h (0 Bft) 97,92 %
28.09.2020 04:52 11,0 C 10,0 C 10,0 C 96 % 1008,2 hPa 0,0 l/m 0 min 0 min 0 W/m 0,0 km/h (0 Bft) 100,00 %
28.09.2020 04:54 11,0 C 10,0 C 10,0 C 96 % 1008,2 hPa 0,0 l/m 0 min 0 min 0 W/m 0,0 km/h (0 Bft) 100,00 %
28.09.2020 04:56 11,0 C 10,0 C 10,0 C 96 % 1008,2 hPa 0,0 l/m 0 min 0 min 0 W/m 0,0 km/h (0 Bft) 100,00 %
28.09.2020 04:58 11,0 C 10,0 C 10,0 C 96 % 1008,2 hPa 0,0 l/m 0 min 0 min 0 W/m 0,0 km/h (0 Bft) 100,00 %
28.09.2020 05:00 11,0 C 10,0 C 10,0 C 96 % 1008,2 hPa 0,0 l/m 0 min 0 min 0 W/m 0,0 km/h (0 Bft) 97,87 %
28.09.2020 05:02 11,0 C 10,0 C 10,0 C 96 % 1008,1 hPa 0,0 l/m 0 min 0 min 0 W/m 0,0 km/h (0 Bft) 100,00 %
28.09.2020 05:04 11,0 C 10,0 C 10,0 C 96 % 1008,1 hPa 0,0 l/m 0 min 0 min 0 W/m 3,2 km/h (1 Bft) 100,00 %
28.09.2020 05:06 11,0 C 10,0 C 10,0 C 96 % 1008,1 hPa 0,0 l/m 0 min 0 min 0 W/m 3,2 km/h (1 Bft) 100,00 %
28.09.2020 05:08 11,0 C 10,0 C 10,0 C 96 % 1008,1 hPa 0,0 l/m 0 min 0 min 0 W/m 3,2 km/h (1 Bft) 100,00 %
28.09.2020 05:10 11,0 C 10,0 C 10,0 C 96 % 1008,1 hPa 0,0 l/m 0 min 0 min 0 W/m 3,2 km/h (1 Bft) 100,00 %
28.09.2020 05:12 11,0 C 10,0 C 10,0 C 96 % 1008,1 hPa 0,0 l/m 0 min 0 min 0 W/m 6,4 km/h (2 Bft) 100,00 %
28.09.2020 05:14 11,0 C 10,0 C 10,0 C 96 % 1008,1 hPa 0,0 l/m 0 min 0 min 0 W/m 6,4 km/h (2 Bft) 97,83 %
28.09.2020 05:16 11,0 C 10,6 C 10,0 C 96 % 1008,1 hPa 0,0 l/m 0 min 0 min 0 W/m 6,4 km/h (2 Bft) 97,87 %
28.09.2020 05:18 11,0 C 10,6 C 10,0 C 96 % 1008,1 hPa 0,0 l/m 0 min 0 min 0 W/m 6,4 km/h (2 Bft) 100,00 %
28.09.2020 05:20 11,0 C 10,6 C 10,0 C 96 % 1008,1 hPa 0,0 l/m 0 min 0 min 0 W/m 3,2 km/h (1 Bft) 100,00 %
28.09.2020 05:22 11,0 C 10,6 C 10,0 C 96 % 1008,1 hPa 0,0 l/m 0 min 0 min 0 W/m 3,2 km/h (1 Bft) 100,00 %
28.09.2020 05:24 11,0 C 10,6 C 10,0 C 96 % 1008,1 hPa 0,0 l/m 0 min 0 min 0 W/m 6,4 km/h (2 Bft) 100,00 %
28.09.2020 05:26 11,0 C 10,6 C 10,0 C 96 % 1008,0 hPa 0,0 l/m 0 min 0 min 0 W/m 6,4 km/h (2 Bft) 100,00 %
28.09.2020 05:28 11,0 C 10,6 C 10,0 C 96 % 1008,1 hPa 0,0 l/m 0 min 0 min 0 W/m 0,0 km/h (0 Bft) 100,00 %
28.09.2020 05:30 11,0 C 10,6 C 10,0 C 96 % 1008,0 hPa 0,0 l/m 0 min 0 min 0 W/m 6,4 km/h (2 Bft) 97,87 %
28.09.2020 05:32 11,0 C 10,6 C 10,0 C 96 % 1008,0 hPa 0,0 l/m 0 min 0 min 0 W/m 12,9 km/h (3 Bft) 97,87 %
28.09.2020 05:34 11,0 C 10,6 C 10,0 C 97 % 1008,0 hPa 0,0 l/m 0 min 0 min 0 W/m 3,2 km/h (1 Bft) 100,00 %
28.09.2020 05:36 11,0 C 10,6 C 10,0 C 97 % 1008,0 hPa 0,0 l/m 0 min 0 min 0 W/m 6,4 km/h (2 Bft) 100,00 %
28.09.2020 05:38 11,0 C 10,6 C 10,0 C 97 % 1007,9 hPa 0,0 l/m 0 min 0 min 0 W/m 6,4 km/h (2 Bft) 100,00 %
28.09.2020 05:40 11,0 C 10,6 C 10,0 C 97 % 1007,9 hPa 0,0 l/m 0 min 0 min 0 W/m 0,0 km/h (0 Bft) 97,87 %
28.09.2020 05:42 11,0 C 10,6 C 10,0 C 97 % 1008,0 hPa 0,0 l/m 0 min 0 min 0 W/m 6,4 km/h (2 Bft) 95,74 %
28.09.2020 05:44 11,0 C 10,6 C 10,0 C 97 % 1008,0 hPa 0,0 l/m 0 min 0 min 0 W/m 6,4 km/h (2 Bft) 100,00 %
28.09.2020 05:46 11,0 C 10,6 C 10,0 C 97 % 1008,1 hPa 0,0 l/m 0 min 0 min 0 W/m 9,7 km/h (2 Bft) 100,00 %
28.09.2020 05:48 11,0 C 10,6 C 10,0 C 97 % 1008,1 hPa 0,0 l/m 0 min 0 min 0 W/m 3,2 km/h (1 Bft) 97,87 %
28.09.2020 05:50 11,0 C 10,6 C 10,0 C 97 % 1008,2 hPa 0,0 l/m 0 min 0 min 0 W/m 0,0 km/h (0 Bft) 100,00 %
28.09.2020 05:52 11,0 C 10,6 C 10,0 C 97 % 1008,2 hPa 0,0 l/m 0 min 0 min 0 W/m 0,0 km/h (0 Bft) 100,00 %
28.09.2020 05:54 11,0 C 10,6 C 10,0 C 97 % 1008,2 hPa 0,0 l/m 0 min 0 min 0 W/m 0,0 km/h (0 Bft) 100,00 %
28.09.2020 05:56 11,0 C 10,6 C 10,0 C 97 % 1008,2 hPa 0,0 l/m 0 min 0 min 0 W/m 0,0 km/h (0 Bft) 97,87 %
28.09.2020 05:58 11,0 C 10,6 C 10,0 C 97 % 1008,2 hPa 0,0 l/m 0 min 0 min 0 W/m 6,4 km/h (2 Bft) 95,74 %
28.09.2020 06:00 11,0 C 10,6 C 10,0 C 97 % 1008,3 hPa 0,0 l/m 0 min 0 min 0 W/m 6,4 km/h (2 Bft) 91,30 %
28.09.2020 06:02 11,0 C 10,6 C 10,0 C 97 % 1008,3 hPa 0,0 l/m 0 min 0 min 0 W/m 3,2 km/h (1 Bft) 95,74 %
28.09.2020 06:04 11,0 C 10,6 C 10,0 C 97 % 1008,3 hPa 0,0 l/m 0 min 0 min 0 W/m 3,2 km/h (1 Bft) 95,74 %
28.09.2020 06:07 11,0 C 10,6 C 10,0 C 97 % 1008,3 hPa 0,0 l/m 0 min 0 min 0 W/m 6,4 km/h (2 Bft) 94,37 %
28.09.2020 06:08 11,0 C 10,6 C 10,0 C 97 % 1008,3 hPa 0,0 l/m 0 min 0 min 0 W/m 3,2 km/h (1 Bft) 95,83 %
28.09.2020 06:10 11,0 C 10,6 C 10,0 C 97 % 1008,3 hPa 0,0 l/m 0 min 0 min 0 W/m 3,2 km/h (1 Bft) 95,74 %
28.09.2020 06:12 11,0 C 10,6 C 10,0 C 97 % 1008,3 hPa 0,0 l/m 0 min 0 min 0 W/m 3,2 km/h (1 Bft) 93,48 %
28.09.2020 06:14 11,0 C 10,6 C 10,0 C 97 % 1008,3 hPa 0,0 l/m 0 min 0 min 0 W/m 3,2 km/h (1 Bft) 93,62 %
28.09.2020 06:16 11,0 C 10,6 C 10,0 C 97 % 1008,3 hPa 0,0 l/m 0 min 0 min 0 W/m 0,0 km/h (0 Bft) 95,74 %
28.09.2020 06:18 11,0 C 10,6 C 10,0 C 97 % 1008,3 hPa 0,0 l/m 0 min 0 min 0 W/m 3,2 km/h (1 Bft) 95,74 %
28.09.2020 06:20 11,0 C 10,6 C 10,0 C 97 % 1008,3 hPa 0,0 l/m 0 min 0 min 0 W/m 3,2 km/h (1 Bft) 95,74 %
28.09.2020 06:22 11,0 C 10,6 C 10,0 C 97 % 1008,3 hPa 0,0 l/m 0 min 0 min 0 W/m 3,2 km/h (1 Bft) 95,74 %
28.09.2020 06:24 11,0 C 10,6 C 10,0 C 97 % 1008,4 hPa 0,0 l/m 0 min 0 min 0 W/m 0,0 km/h (0 Bft) 95,65 %
28.09.2020 06:26 11,0 C 10,6 C 10,0 C 97 % 1008,4 hPa 0,0 l/m 0 min 0 min 0 W/m 3,2 km/h (1 Bft) 93,62 %
28.09.2020 06:28 11,0 C 10,6 C 10,0 C 97 % 1008,4 hPa 0,0 l/m 0 min 0 min 0 W/m 3,2 km/h (1 Bft) 95,74 %
28.09.2020 06:30 11,0 C 10,6 C 10,0 C 97 % 1008,4 hPa 0,0 l/m 0 min 0 min 0 W/m 0,0 km/h (0 Bft) 95,74 %
28.09.2020 06:32 11,0 C 10,6 C 10,0 C 97 % 1008,3 hPa 0,0 l/m 0 min 0 min 0 W/m 6,4 km/h (2 Bft) 95,74 %
28.09.2020 06:34 11,0 C 10,6 C 10,0 C 97 % 1008,3 hPa 0,0 l/m 0 min 0 min 0 W/m 0,0 km/h (0 Bft) 95,74 %
28.09.2020 06:36 11,0 C 10,6 C 10,0 C 97 % 1008,3 hPa 0,0 l/m 0 min 0 min 0 W/m 0,0 km/h (0 Bft) 95,65 %
28.09.2020 06:38 11,1 C 10,6 C 10,0 C 97 % 1008,3 hPa 0,0 l/m 0 min 0 min 0 W/m 0,0 km/h (0 Bft) 95,74 %
28.09.2020 06:40 11,1 C 10,6 C 10,0 C 97 % 1008,2 hPa 0,0 l/m 0 min 0 min 0 W/m 0,0 km/h (0 Bft) 95,74 %
28.09.2020 06:42 11,1 C 10,6 C 10,0 C 97 % 1008,2 hPa 0,0 l/m 0 min 0 min 0 W/m 0,0 km/h (0 Bft) 97,87 %
28.09.2020 06:44 11,1 C 10,6 C 10,0 C 97 % 1008,2 hPa 0,0 l/m 0 min 0 min 0 W/m 9,7 km/h (2 Bft) 97,87 %
28.09.2020 06:46 11,1 C 10,6 C 10,0 C 97 % 1008,2 hPa 0,0 l/m 0 min 0 min 0 W/m 6,4 km/h (2 Bft) 97,87 %
28.09.2020 06:48 11,1 C 10,6 C 10,0 C 97 % 1008,2 hPa 0,0 l/m 0 min 0 min 0 W/m 6,4 km/h (2 Bft) 97,83 %
28.09.2020 06:50 11,1 C 10,6 C 10,0 C 97 % 1008,2 hPa 0,0 l/m 0 min 0 min 0 W/m 9,7 km/h (2 Bft) 100,00 %
28.09.2020 06:52 11,1 C 10,6 C 10,0 C 97 % 1008,2 hPa 0,0 l/m 0 min 0 min 0 W/m 9,7 km/h (2 Bft) 100,00 %
28.09.2020 06:54 11,1 C 10,6 C 10,0 C 97 % 1008,3 hPa 0,0 l/m 0 min 0 min 0 W/m 6,4 km/h (2 Bft) 97,87 %
28.09.2020 06:56 11,1 C 10,6 C 10,0 C 97 % 1008,3 hPa 0,0 l/m 0 min 0 min 0 W/m 6,4 km/h (2 Bft) 97,87 %
28.09.2020 06:58 11,1 C 10,6 C 10,0 C 97 % 1008,3 hPa 0,0 l/m 0 min 0 min 0 W/m 6,4 km/h (2 Bft) 95,74 %
28.09.2020 07:00 11,1 C 10,6 C 10,0 C 97 % 1008,3 hPa 0,0 l/m 0 min 0 min 0 W/m 9,7 km/h (2 Bft) 97,83 %
28.09.2020 07:02 11,1 C 10,6 C 10,0 C 97 % 1008,4 hPa 0,0 l/m 0 min 0 min 0 W/m 6,4 km/h (2 Bft) 97,87 %
28.09.2020 07:04 11,1 C 10,6 C 10,0 C 97 % 1008,3 hPa 0,0 l/m 0 min 0 min 0 W/m 3,2 km/h (1 Bft) 94,87 %
28.09.2020 07:06 11,1 C 10,6 C 10,0 C 97 % 1008,4 hPa 0,0 l/m 0 min 0 min 0 W/m 6,4 km/h (2 Bft) 97,87 %
28.09.2020 07:08 11,1 C 10,6 C 10,0 C 97 % 1008,4 hPa 0,0 l/m 0 min 0 min 0 W/m 6,4 km/h (2 Bft) 97,87 %
28.09.2020 07:10 11,1 C 10,6 C 10,0 C 97 % 1008,4 hPa 0,0 l/m 0 min 0 min 0 W/m 6,4 km/h (2 Bft) 97,87 %
28.09.2020 07:12 11,1 C 10,6 C 10,0 C 97 % 1008,5 hPa 0,0 l/m 0 min 0 min 0 W/m 6,4 km/h (2 Bft) 95,74 %
28.09.2020 07:14 11,1 C 10,6 C 10,0 C 97 % 1008,6 hPa 0,0 l/m 0 min 0 min 0 W/m 3,2 km/h (1 Bft) 97,87 %
28.09.2020 07:16 11,1 C 10,6 C 10,0 C 97 % 1008,6 hPa 0,0 l/m 0 min 0 min 0 W/m 0,0 km/h (0 Bft) 97,83 %
28.09.2020 07:18 11,1 C 10,6 C 10,0 C 97 % 1008,6 hPa 0,0 l/m 0 min 0 min 0 W/m 0,0 km/h (0 Bft) 97,87 %
28.09.2020 07:20 11,1 C 10,6 C 10,0 C 97 % 1008,7 hPa 0,0 l/m 0 min 0 min 0 W/m 0,0 km/h (0 Bft) 93,62 %
28.09.2020 07:22 11,1 C 10,6 C 10,0 C 97 % 1008,7 hPa 0,0 l/m 0 min 0 min 0 W/m 0,0 km/h (0 Bft) 97,87 %
28.09.2020 07:24 11,1 C 10,6 C 10,0 C 97 % 1008,7 hPa 0,0 l/m 0 min 0 min 0 W/m 0,0 km/h (0 Bft) 95,74 %
28.09.2020 07:26 11,1 C 10,6 C 10,0 C 97 % 1008,8 hPa 0,0 l/m 0 min 0 min 0 W/m 0,0 km/h (0 Bft) 97,83 %
28.09.2020 07:28 11,1 C 10,6 C 10,0 C 97 % 1008,8 hPa 0,0 l/m 0 min 0 min 0 W/m 0,0 km/h (0 Bft) 97,87 %
28.09.2020 07:30 11,1 C 10,6 C 10,0 C 97 % 1008,8 hPa 0,0 l/m 0 min 0 min 0 W/m 3,2 km/h (1 Bft) 97,87 %
28.09.2020 07:32 11,1 C 10,6 C 10,0 C 97 % 1008,8 hPa 0,0 l/m 0 min 0 min 0 W/m 6,4 km/h (2 Bft) 97,87 %
28.09.2020 07:34 11,1 C 10,6 C 10,0 C 97 % 1008,9 hPa 0,0 l/m 0 min 0 min 0 W/m 6,4 km/h (2 Bft) 97,87 %
28.09.2020 07:36 11,1 C 10,6 C 10,0 C 97 % 1008,8 hPa 0,0 l/m 0 min 0 min 0 W/m 3,2 km/h (1 Bft) 95,74 %
28.09.2020 07:38 11,1 C 10,6 C 10,0 C 97 % 1008,8 hPa 0,0 l/m 0 min 0 min 0 W/m 3,2 km/h (1 Bft) 95,65 %
28.09.2020 07:40 11,1 C 10,6 C 10,0 C 96 % 1008,9 hPa 0,0 l/m 0 min 0 min 0 W/m 0,0 km/h (0 Bft) 97,87 %
28.09.2020 07:42 11,1 C 10,6 C 10,0 C 96 % 1008,8 hPa 0,0 l/m 0 min 0 min 0 W/m 0,0 km/h (0 Bft) 97,87 %
28.09.2020 07:44 11,1 C 10,6 C 10,0 C 96 % 1008,9 hPa 0,0 l/m 0 min 0 min 0 W/m 0,0 km/h (0 Bft) 97,87 %
28.09.2020 07:46 11,1 C 10,6 C 10,0 C 96 % 1008,9 hPa 0,0 l/m 0 min 0 min 1 W/m 0,0 km/h (0 Bft) 97,87 %
28.09.2020 07:48 11,1 C 10,6 C 10,0 C 96 % 1008,9 hPa 0,0 l/m 0 min 0 min 5 W/m 0,0 km/h (0 Bft) 97,87 %
28.09.2020 07:50 11,1 C 10,6 C 10,0 C 96 % 1008,9 hPa 0,0 l/m 0 min 0 min 5 W/m 6,4 km/h (2 Bft) 97,83 %
28.09.2020 07:52 11,1 C 10,6 C 10,0 C 96 % 1008,9 hPa 0,0 l/m 0 min 0 min 5 W/m 12,9 km/h (3 Bft) 97,87 %
28.09.2020 07:54 11,1 C 10,6 C 10,0 C 96 % 1009,0 hPa 0,0 l/m 0 min 0 min 7 W/m 3,2 km/h (1 Bft) 97,87 %
28.09.2020 07:56 11,1 C 10,6 C 10,0 C 96 % 1008,9 hPa 0,0 l/m 0 min 0 min 8 W/m 3,2 km/h (1 Bft) 97,87 %
28.09.2020 07:58 11,1 C 10,6 C 10,0 C 96 % 1008,9 hPa 0,0 l/m 0 min 0 min 9 W/m 3,2 km/h (1 Bft) 100,00 %
28.09.2020 08:00 11,1 C 10,6 C 10,0 C 96 % 1008,9 hPa 0,0 l/m 0 min 0 min 9 W/m 0,0 km/h (0 Bft) 100,00 %
28.09.2020 08:02 11,1 C 10,6 C 10,0 C 96 % 1008,9 hPa 0,0 l/m 0 min 0 min 9 W/m 0,0 km/h (0 Bft) 97,83 %
28.09.2020 08:04 11,1 C 10,6 C 10,0 C 96 % 1008,9 hPa 0,0 l/m 0 min 0 min 9 W/m 0,0 km/h (0 Bft) 100,00 %
28.09.2020 08:06 11,1 C 10,6 C 10,0 C 96 % 1008,9 hPa 0,0 l/m 0 min 0 min 9 W/m 0,0 km/h (0 Bft) 100,00 %
28.09.2020 08:08 11,1 C 10,6 C 10,0 C 96 % 1008,9 hPa 0,0 l/m 0 min 0 min 10 W/m 0,0 km/h (0 Bft) 100,00 %
28.09.2020 08:10 11,1 C 10,6 C 10,0 C 96 % 1008,9 hPa 0,0 l/m 0 min 0 min 11 W/m 0,0 km/h (0 Bft) 100,00 %
28.09.2020 08:12 11,1 C 10,6 C 10,0 C 96 % 1008,9 hPa 0,0 l/m 0 min 0 min 12 W/m 0,0 km/h (0 Bft) 97,87 %
28.09.2020 08:14 11,1 C 10,6 C 10,0 C 96 % 1008,9 hPa 0,0 l/m 0 min 0 min 12 W/m 6,4 km/h (2 Bft) 100,00 %
28.09.2020 08:16 11,1 C 10,6 C 10,0 C 96 % 1008,9 hPa 0,0 l/m 0 min 0 min 12 W/m 6,4 km/h (2 Bft) 100,00 %
28.09.2020 08:18 11,1 C 10,6 C 10,0 C 96 % 1008,8 hPa 0,0 l/m 0 min 0 min 13 W/m 0,0 km/h (0 Bft) 95,74 %
28.09.2020 08:20 11,1 C 10,6 C 10,0 C 96 % 1008,8 hPa 0,0 l/m 0 min 0 min 15 W/m 0,0 km/h (0 Bft) 100,00 %
28.09.2020 08:22 11,1 C 10,6 C 10,0 C 96 % 1008,9 hPa 0,0 l/m 0 min 0 min 17 W/m 6,4 km/h (2 Bft) 100,00 %
28.09.2020 08:24 11,1 C 10,6 C 10,0 C 96 % 1008,9 hPa 0,0 l/m 0 min 0 min 18 W/m 6,4 km/h (2 Bft) 100,00 %
28.09.2020 08:26 11,1 C 10,6 C 10,0 C 96 % 1008,9 hPa 0,0 l/m 0 min 0 min 18 W/m 3,2 km/h (1 Bft) 95,74 %
28.09.2020 08:28 11,1 C 10,6 C 10,0 C 96 % 1008,9 hPa 0,0 l/m 0 min 0 min 18 W/m 6,4 km/h (2 Bft) 100,00 %
28.09.2020 08:30 11,1 C 11,1 C 10,0 C 96 % 1008,9 hPa 0,0 l/m 0 min 0 min 18 W/m 6,4 km/h (2 Bft) 100,00 %
28.09.2020 08:32 11,2 C 11,1 C 10,0 C 96 % 1008,9 hPa 0,0 l/m 0 min 0 min 18 W/m 6,4 km/h (2 Bft) 95,65 %
28.09.2020 08:34 11,2 C 11,1 C 10,0 C 96 % 1008,9 hPa 0,0 l/m 0 min 0 min 19 W/m 16,1 km/h (3 Bft) 97,87 %
28.09.2020 08:36 11,2 C 11,1 C 10,0 C 96 % 1008,9 hPa 0,0 l/m 0 min 0 min 20 W/m 12,9 km/h (3 Bft) 97,87 %
28.09.2020 08:38 11,2 C 11,1 C 10,0 C 96 % 1008,9 hPa 0,0 l/m 0 min 0 min 23 W/m 6,4 km/h (2 Bft) 97,87 %
28.09.2020 08:40 11,2 C 11,1 C 10,0 C 96 % 1008,9 hPa 0,0 l/m 0 min 0 min 25 W/m 6,4 km/h (2 Bft) 97,87 %
28.09.2020 08:42 11,2 C 11,1 C 10,0 C 96 % 1009,0 hPa 0,0 l/m 0 min 0 min 26 W/m 3,2 km/h (1 Bft) 95,74 %
28.09.2020 08:44 11,2 C 11,1 C 10,0 C 96 % 1009,0 hPa 0,0 l/m 0 min 0 min 26 W/m 0,0 km/h (0 Bft) 93,62 %
28.09.2020 08:46 11,2 C 11,1 C 10,0 C 96 % 1009,0 hPa 0,0 l/m 0 min 0 min 26 W/m 0,0 km/h (0 Bft) 93,48 %
28.09.2020 08:48 11,2 C 11,1 C 10,0 C 96 % 1009,0 hPa 0,0 l/m 0 min 0 min 26 W/m 3,2 km/h (1 Bft) 95,74 %
28.09.2020 08:50 11,2 C 11,1 C 10,6 C 96 % 1009,0 hPa 0,0 l/m 0 min 0 min 28 W/m 12,9 km/h (3 Bft) 95,74 %
28.09.2020 08:52 11,2 C 11,1 C 10,6 C 96 % 1009,0 hPa 0,0 l/m 0 min 0 min 30 W/m 6,4 km/h (2 Bft) 95,74 %
28.09.2020 08:54 11,2 C 11,1 C 10,6 C 96 % 1009,0 hPa 0,0 l/m 0 min 0 min 31 W/m 0,0 km/h (0 Bft) 95,74 %
28.09.2020 08:56 11,2 C 11,1 C 10,6 C 96 % 1009,0 hPa 0,0 l/m 0 min 0 min 32 W/m 0,0 km/h (0 Bft) 95,65 %
28.09.2020 08:58 11,2 C 11,1 C 10,6 C 96 % 1008,9 hPa 0,0 l/m 0 min 0 min 32 W/m 6,4 km/h (2 Bft) 93,62 %
28.09.2020 09:00 11,2 C 11,1 C 10,6 C 96 % 1009,0 hPa 0,0 l/m 0 min 0 min 32 W/m 3,2 km/h (1 Bft) 91,49 %
28.09.2020 09:02 11,3 C 11,1 C 10,6 C 96 % 1008,9 hPa 0,0 l/m 0 min 0 min 32 W/m 0,0 km/h (0 Bft) 93,62 %
28.09.2020 09:04 11,3 C 11,1 C 10,6 C 96 % 1008,9 hPa 0,0 l/m 0 min 0 min 35 W/m 0,0 km/h (0 Bft) 95,45 %
28.09.2020 09:06 11,3 C 11,1 C 10,6 C 96 % 1008,9 hPa 0,0 l/m 0 min 0 min 37 W/m 6,4 km/h (2 Bft) 95,74 %
28.09.2020 09:08 11,3 C 11,1 C 10,6 C 96 % 1008,9 hPa 0,0 l/m 0 min 0 min 39 W/m 3,2 km/h (1 Bft) 97,73 %
28.09.2020 09:10 11,3 C 11,7 C 10,6 C 96 % 1008,9 hPa 0,0 l/m 0 min 0 min 39 W/m 6,4 km/h (2 Bft) 95,74 %
28.09.2020 09:12 11,3 C 11,1 C 10,6 C 96 % 1008,9 hPa 0,0 l/m 0 min 0 min 39 W/m 6,4 km/h (2 Bft) 93,62 %
28.09.2020 09:14 11,3 C 11,1 C 10,6 C 96 % 1009,0 hPa 0,0 l/m 0 min 0 min 38 W/m 6,4 km/h (2 Bft) 95,74 %
28.09.2020 09:16 11,3 C 11,1 C 10,6 C 96 % 1009,0 hPa 0,0 l/m 0 min 0 min 36 W/m 12,9 km/h (3 Bft) 91,49 %
28.09.2020 09:18 11,3 C 11,1 C 10,6 C 95 % 1009,0 hPa 0,0 l/m 0 min 0 min 34 W/m 3,2 km/h (1 Bft) 95,65 %
28.09.2020 09:20 11,3 C 11,1 C 10,6 C 95 % 1009,1 hPa 0,0 l/m 0 min 0 min 33 W/m 0,0 km/h (0 Bft) 93,62 %
28.09.2020 09:22 11,4 C 11,1 C 10,6 C 95 % 1009,1 hPa 0,0 l/m 0 min 0 min 33 W/m 0,0 km/h (0 Bft) 97,87 %
28.09.2020 09:24 11,4 C 11,7 C 10,6 C 95 % 1009,1 hPa 0,0 l/m 0 min 0 min 36 W/m 0,0 km/h (0 Bft) 95,74 %
28.09.2020 09:26 11,4 C 11,7 C 10,6 C 95 % 1009,1 hPa 0,0 l/m 0 min 0 min 40 W/m 0,0 km/h (0 Bft) 97,87 %
28.09.2020 09:28 11,4 C 11,7 C 10,6 C 95 % 1009,1 hPa 0,0 l/m 0 min 0 min 44 W/m 0,0 km/h (0 Bft) 97,87 %
28.09.2020 09:30 11,4 C 11,7 C 10,6 C 95 % 1009,1 hPa 0,0 l/m 0 min 0 min 44 W/m 0,0 km/h (0 Bft) 93,48 %
28.09.2020 09:32 11,4 C 11,7 C 10,6 C 95 % 1009,1 hPa 0,0 l/m 0 min 0 min 47 W/m 0,0 km/h (0 Bft) 95,83 %
28.09.2020 09:34 11,4 C 11,7 C 10,6 C 95 % 1009,1 hPa 0,0 l/m 0 min 0 min 47 W/m 0,0 km/h (0 Bft) 100,00 %
28.09.2020 09:36 11,5 C 11,7 C 10,6 C 95 % 1009,2 hPa 0,0 l/m 0 min 0 min 35 W/m 0,0 km/h (0 Bft) 100,00 %
28.09.2020 09:38 11,5 C 11,7 C 10,6 C 95 % 1009,2 hPa 0,0 l/m 0 min 0 min 32 W/m 0,0 km/h (0 Bft) 100,00 %
28.09.2020 09:40 11,5 C 11,7 C 10,6 C 95 % 1009,2 hPa 0,0 l/m 0 min 0 min 34 W/m 0,0 km/h (0 Bft) 100,00 %
28.09.2020 09:42 11,6 C 11,7 C 10,6 C 95 % 1009,2 hPa 0,0 l/m 0 min 0 min 41 W/m 0,0 km/h (0 Bft) 100,00 %
28.09.2020 09:44 11,6 C 11,7 C 10,6 C 95 % 1009,1 hPa 0,0 l/m 0 min 0 min 53 W/m 6,4 km/h (2 Bft) 100,00 %
28.09.2020 09:46 11,6 C 11,7 C 10,6 C 95 % 1009,1 hPa 0,0 l/m 0 min 0 min 63 W/m 12,9 km/h (3 Bft) 100,00 %
28.09.2020 09:48 11,6 C 11,7 C 10,6 C 95 % 1009,1 hPa 0,0 l/m 0 min 0 min 62 W/m 3,2 km/h (1 Bft) 100,00 %
28.09.2020 09:50 11,6 C 11,7 C 10,6 C 95 % 1009,2 hPa 0,0 l/m 0 min 0 min 57 W/m 6,4 km/h (2 Bft) 100,00 %
28.09.2020 09:52 11,6 C 11,7 C 10,6 C 95 % 1009,2 hPa 0,0 l/m 0 min 0 min 55 W/m 3,2 km/h (1 Bft) 97,83 %
28.09.2020 09:54 11,7 C 11,7 C 10,6 C 95 % 1009,3 hPa 0,0 l/m 0 min 0 min 49 W/m 6,4 km/h (2 Bft) 100,00 %
28.09.2020 09:56 11,7 C 11,7 C 10,6 C 95 % 1009,3 hPa 0,0 l/m 0 min 0 min 41 W/m 3,2 km/h (1 Bft) 97,87 %
28.09.2020 09:58 11,7 C 11,7 C 10,6 C 95 % 1009,3 hPa 0,0 l/m 0 min 0 min 36 W/m 0,0 km/h (0 Bft) 100,00 %
28.09.2020 10:00 11,7 C 11,7 C 10,6 C 95 % 1009,3 hPa 0,0 l/m 0 min 0 min 40 W/m 6,4 km/h (2 Bft) 100,00 %
28.09.2020 10:02 11,7 C 11,7 C 10,6 C 95 % 1009,3 hPa 0,0 l/m 0 min 0 min 55 W/m 6,4 km/h (2 Bft) 100,00 %
28.09.2020 10:04 11,7 C 11,7 C 10,6 C 95 % 1009,1 hPa 0,0 l/m 0 min 0 min 74 W/m 6,4 km/h (2 Bft) 100,00 %
28.09.2020 10:06 11,7 C 12,2 C 11,1 C 95 % 1009,1 hPa 0,0 l/m 0 min 0 min 96 W/m 12,9 km/h (3 Bft) 97,87 %
28.09.2020 10:08 11,8 C 12,2 C 11,1 C 95 % 1009,1 hPa 0,0 l/m 0 min 0 min 108 W/m 6,4 km/h (2 Bft) 100,00 %
28.09.2020 10:10 11,8 C 12,2 C 11,1 C 95 % 1009,1 hPa 0,0 l/m 0 min 0 min 119 W/m 0,0 km/h (0 Bft) 100,00 %
28.09.2020 10:12 11,8 C 12,8 C 11,1 C 95 % 1009,1 hPa 0,0 l/m 0 min 0 min 132 W/m 0,0 km/h (0 Bft) 97,87 %
28.09.2020 10:14 11,8 C 12,8 C 11,7 C 95 % 1009,2 hPa 0,0 l/m 0 min 0 min 141 W/m 6,4 km/h (2 Bft) 100,00 %
28.09.2020 10:16 11,9 C 12,8 C 11,7 C 95 % 1009,3 hPa 0,0 l/m 0 min 0 min 153 W/m 9,7 km/h (2 Bft) 100,00 %
28.09.2020 10:18 11,9 C 12,8 C 11,7 C 95 % 1009,3 hPa 0,0 l/m 0 min 0 min 158 W/m 6,4 km/h (2 Bft) 100,00 %
28.09.2020 10:20 11,9 C 13,3 C 11,7 C 94 % 1009,3 hPa 0,0 l/m 0 min 0 min 160 W/m 9,7 km/h (2 Bft) 97,87 %
28.09.2020 10:22 12,0 C 13,3 C 11,7 C 94 % 1009,3 hPa 0,0 l/m 0 min 0 min 154 W/m 12,9 km/h (3 Bft) 100,00 %
28.09.2020 10:24 12,1 C 12,8 C 11,7 C 94 % 1009,3 hPa 0,0 l/m 0 min 0 min 137 W/m 6,4 km/h (2 Bft) 100,00 %
28.09.2020 10:26 12,1 C 12,8 C 11,7 C 94 % 1009,3 hPa 0,0 l/m 0 min 0 min 121 W/m 12,9 km/h (3 Bft) 97,87 %
28.09.2020 10:28 12,1 C 12,8 C 11,7 C 94 % 1009,3 hPa 0,0 l/m 0 min 0 min 109 W/m 12,9 km/h (3 Bft) 97,83 %
28.09.2020 10:30 12,2 C 12,8 C 11,7 C 94 % 1009,3 hPa 0,0 l/m 0 min 0 min 101 W/m 12,9 km/h (3 Bft) 97,87 %
28.09.2020 10:32 12,2 C 12,8 C 11,7 C 94 % 1009,3 hPa 0,0 l/m 0 min 0 min 93 W/m 12,9 km/h (3 Bft) 97,87 %
28.09.2020 10:34 12,2 C 12,8 C 11,7 C 94 % 1009,3 hPa 0,0 l/m 0 min 0 min 91 W/m 6,4 km/h (2 Bft) 97,87 %
28.09.2020 10:36 12,3 C 12,8 C 11,7 C 94 % 1009,2 hPa 0,0 l/m 0 min 0 min 98 W/m 9,7 km/h (2 Bft) 95,74 %
28.09.2020 10:38 12,3 C 12,8 C 11,7 C 93 % 1009,3 hPa 0,0 l/m 0 min 0 min 107 W/m 6,4 km/h (2 Bft) 97,87 %
28.09.2020 10:40 12,3 C 12,8 C 11,7 C 93 % 1009,3 hPa 0,0 l/m 0 min 0 min 108 W/m 9,7 km/h (2 Bft) 95,74 %
28.09.2020 10:42 12,3 C 12,8 C 11,7 C 93 % 1009,3 hPa 0,0 l/m 0 min 0 min 106 W/m 6,4 km/h (2 Bft) 97,83 %
28.09.2020 10:44 12,4 C 12,8 C 11,7 C 93 % 1009,3 hPa 0,0 l/m 0 min 0 min 114 W/m 9,7 km/h (2 Bft) 97,87 %
28.09.2020 10:46 12,4 C 12,8 C 11,7 C 93 % 1009,3 hPa 0,0 l/m 0 min 0 min 116 W/m 9,7 km/h (2 Bft) 97,87 %
28.09.2020 10:48 12,4 C 12,8 C 11,7 C 93 % 1009,3 hPa 0,0 l/m 0 min 0 min 106 W/m 19,3 km/h (3 Bft) 97,87 %
28.09.2020 10:50 12,4 C 12,8 C 11,7 C 92 % 1009,3 hPa 0,0 l/m 0 min 0 min 100 W/m 12,9 km/h (3 Bft) 97,87 %
28.09.2020 10:52 12,5 C 12,8 C 11,7 C 92 % 1009,3 hPa 0,0 l/m 0 min 0 min 103 W/m 22,5 km/h (4 Bft) 97,87 %
28.09.2020 10:54 12,5 C 12,8 C 11,7 C 92 % 1009,3 hPa 0,0 l/m 0 min 0 min 104 W/m 16,1 km/h (3 Bft) 97,83 %
28.09.2020 10:56 12,6 C 12,8 C 11,7 C 92 % 1009,3 hPa 0,0 l/m 0 min 0 min 105 W/m 12,9 km/h (3 Bft) 97,87 %
28.09.2020 10:58 12,6 C 12,8 C 11,7 C 92 % 1009,4 hPa 0,0 l/m 0 min 0 min 105 W/m 12,9 km/h (3 Bft) 97,87 %
28.09.2020 11:00 12,6 C 12,8 C 11,7 C 91 % 1009,4 hPa 0,0 l/m 0 min 0 min 104 W/m 6,4 km/h (2 Bft) 97,87 %
28.09.2020 11:02 12,6 C 12,8 C 11,7 C 91 % 1009,4 hPa 0,0 l/m 0 min 2 min 96 W/m 9,7 km/h (2 Bft) 97,87 %
28.09.2020 11:04 12,6 C 12,8 C 11,7 C 91 % 1009,4 hPa 0,0 l/m 0 min 2 min 82 W/m 9,7 km/h (2 Bft) 97,83 %
28.09.2020 11:06 12,7 C 12,2 C 11,7 C 91 % 1009,5 hPa 0,0 l/m 0 min 2 min 70 W/m 9,7 km/h (2 Bft) 97,87 %
28.09.2020 11:08 12,7 C 11,7 C 11,7 C 91 % 1009,6 hPa 0,0 l/m 0 min 2 min 63 W/m 3,2 km/h (1 Bft) 93,62 %
28.09.2020 11:10 12,7 C 11,1 C 11,1 C 91 % 1009,6 hPa 0,0 l/m 0 min 2 min 63 W/m 9,7 km/h (2 Bft) 95,65 %
28.09.2020 11:12 12,7 C 11,1 C 11,1 C 91 % 1009,6 hPa 0,0 l/m 0 min 2 min 64 W/m 9,7 km/h (2 Bft) 95,74 %
28.09.2020 11:14 12,7 C 11,1 C 11,1 C 91 % 1009,6 hPa 0,0 l/m 0 min 2 min 63 W/m 12,9 km/h (3 Bft) 95,65 %
28.09.2020 11:16 12,7 C 11,1 C 11,1 C 91 % 1009,6 hPa 0,0 l/m 0 min 0 min 69 W/m 12,9 km/h (3 Bft) 93,62 %
28.09.2020 11:18 12,7 C 11,1 C 11,1 C 91 % 1009,6 hPa 0,0 l/m 0 min 0 min 75 W/m 22,5 km/h (4 Bft) 97,87 %
28.09.2020 11:20 12,7 C 11,1 C 11,1 C 91 % 1009,6 hPa 0,0 l/m 0 min 0 min 78 W/m 9,7 km/h (2 Bft) 95,74 %
28.09.2020 11:22 12,7 C 11,1 C 11,1 C 91 % 1009,6 hPa 0,0 l/m 0 min 0 min 74 W/m 12,9 km/h (3 Bft) 95,74 %
28.09.2020 11:24 12,7 C 11,1 C 11,1 C 91 % 1009,7 hPa 0,0 l/m 0 min 0 min 64 W/m 6,4 km/h (2 Bft) 97,87 %
28.09.2020 11:26 12,7 C 11,1 C 11,1 C 91 % 1009,7 hPa 0,0 l/m 0 min 0 min 53 W/m 6,4 km/h (2 Bft) 95,65 %
28.09.2020 11:28 12,7 C 11,1 C 11,1 C 91 % 1009,7 hPa 0,0 l/m 0 min 0 min 46 W/m 12,9 km/h (3 Bft) 97,87 %
28.09.2020 11:30 12,7 C 11,1 C 11,1 C 91 % 1009,7 hPa 0,0 l/m 0 min 0 min 42 W/m 6,4 km/h (2 Bft) 95,74 %
28.09.2020 11:32 12,7 C 11,1 C 11,1 C 91 % 1009,8 hPa 0,0 l/m 0 min 0 min 40 W/m 6,4 km/h (2 Bft) 97,87 %
28.09.2020 11:34 12,7 C 11,7 C 11,1 C 91 % 1009,8 hPa 0,0 l/m 0 min 0 min 40 W/m 12,9 km/h (3 Bft) 97,87 %
28.09.2020 11:36 12,7 C 11,7 C 11,1 C 91 % 1009,8 hPa 0,0 l/m 0 min 0 min 44 W/m 6,4 km/h (2 Bft) 97,87 %
28.09.2020 11:38 12,7 C 11,7 C 11,1 C 91 % 1009,8 hPa 0,0 l/m 0 min 0 min 49 W/m 12,9 km/h (3 Bft) 95,65 %
28.09.2020 11:40 12,7 C 11,7 C 11,1 C 91 % 1009,8 hPa 0,0 l/m 0 min 0 min 48 W/m 6,4 km/h (2 Bft) 93,62 %
28.09.2020 11:42 12,7 C 11,7 C 11,1 C 91 % 1009,8 hPa 0,0 l/m 0 min 0 min 44 W/m 12,9 km/h (3 Bft) 97,87 %
28.09.2020 11:44 12,7 C 11,7 C 11,1 C 91 % 1009,9 hPa 0,0 l/m 0 min 0 min 46 W/m 6,4 km/h (2 Bft) 97,87 %
28.09.2020 11:46 12,7 C 11,7 C 11,1 C 91 % 1009,8 hPa 0,0 l/m 0 min 0 min 42 W/m 6,4 km/h (2 Bft) 95,74 %
28.09.2020 11:48 12,7 C 11,7 C 11,1 C 91 % 1009,9 hPa 0,0 l/m 0 min 0 min 39 W/m 6,4 km/h (2 Bft) 95,74 %
28.09.2020 11:50 12,7 C 11,7 C 11,1 C 91 % 1009,9 hPa 0,0 l/m 0 min 0 min 40 W/m 3,2 km/h (1 Bft) 95,65 %
28.09.2020 11:52 12,6 C 12,2 C 11,1 C 91 % 1009,9 hPa 0,0 l/m 0 min 0 min 42 W/m 3,2 km/h (1 Bft) 95,74 %
28.09.2020 11:54 12,7 C 12,2 C 11,1 C 91 % 1009,9 hPa 0,0 l/m 0 min 0 min 46 W/m 6,4 km/h (2 Bft) 95,74 %
28.09.2020 11:56 12,6 C 12,2 C 11,1 C 91 % 1009,9 hPa 0,0 l/m 0 min 0 min 48 W/m 6,4 km/h (2 Bft) 97,87 %
28.09.2020 11:58 12,6 C 12,2 C 11,1 C 91 % 1009,9 hPa 0,0 l/m 0 min 0 min 51 W/m 3,2 km/h (1 Bft) 97,87 %
28.09.2020 12:00 12,6 C 12,2 C 11,1 C 91 % 1009,9 hPa 0,0 l/m 0 min 0 min 55 W/m 6,4 km/h (2 Bft) 80,85 %
28.09.2020 12:02 12,6 C 12,2 C 11,1 C 91 % 1009,8 hPa 0,0 l/m 0 min 0 min 61 W/m 0,0 km/h (0 Bft) 69,57 %
28.09.2020 12:04 12,7 C 12,2 C 11,1 C 91 % 1009,8 hPa 0,0 l/m 0 min 0 min 64 W/m 0,0 km/h (0 Bft) 97,87 %
28.09.2020 12:08 12,7 C 12,2 C 11,1 C 91 % 1009,7 hPa 0,0 l/m 0 min 0 min 63 W/m 0,0 km/h (0 Bft) 96,81 %
28.09.2020 12:10 12,7 C 12,2 C 11,1 C 91 % 1009,7 hPa 0,0 l/m 0 min 0 min 63 W/m 0,0 km/h (0 Bft) 97,87 %
28.09.2020 12:12 12,7 C 12,2 C 11,1 C 91 % 1009,8 hPa 0,0 l/m 0 min 0 min 63 W/m 0,0 km/h (0 Bft) 95,65 %
28.09.2020 12:14 12,7 C 12,2 C 11,7 C 91 % 1009,7 hPa 0,0 l/m 0 min 0 min 63 W/m 12,9 km/h (3 Bft) 97,87 %
28.09.2020 12:16 12,7 C 12,2 C 11,7 C 91 % 1009,7 hPa 0,0 l/m 0 min 0 min 65 W/m 6,4 km/h (2 Bft) 97,87 %
28.09.2020 12:18 12,7 C 12,2 C 11,7 C 91 % 1009,7 hPa 0,0 l/m 0 min 0 min 68 W/m 6,4 km/h (2 Bft) 95,74 %
28.09.2020 12:20 12,7 C 12,8 C 11,7 C 91 % 1009,8 hPa 0,0 l/m 0 min 0 min 70 W/m 0,0 km/h (0 Bft) 97,87 %
28.09.2020 12:22 12,7 C 12,8 C 11,7 C 91 % 1009,8 hPa 0,0 l/m 0 min 0 min 71 W/m 6,4 km/h (2 Bft) 97,87 %
28.09.2020 12:24 12,7 C 12,8 C 11,7 C 91 % 1009,8 hPa 0,0 l/m 0 min 0 min 66 W/m 6,4 km/h (2 Bft) 97,83 %
28.09.2020 12:26 12,7 C 12,8 C 11,7 C 91 % 1009,8 hPa 0,0 l/m 0 min 0 min 61 W/m 6,4 km/h (2 Bft) 97,87 %
28.09.2020 12:28 12,7 C 12,2 C 11,7 C 91 % 1009,8 hPa 0,0 l/m 0 min 0 min 61 W/m 12,9 km/h (3 Bft) 97,87 %
28.09.2020 12:30 12,7 C 12,2 C 11,7 C 91 % 1009,9 hPa 0,0 l/m 0 min 0 min 62 W/m 6,4 km/h (2 Bft) 97,87 %
28.09.2020 12:32 12,7 C 12,2 C 11,7 C 91 % 1009,9 hPa 0,0 l/m 0 min 0 min 60 W/m 12,9 km/h (3 Bft) 97,87 %
28.09.2020 12:34 12,7 C 12,2 C 11,7 C 91 % 1010,0 hPa 0,0 l/m 0 min 0 min 59 W/m 3,2 km/h (1 Bft) 100,00 %
28.09.2020 12:36 12,7 C 12,2 C 11,7 C 91 % 1010,0 hPa 0,0 l/m 0 min 0 min 62 W/m 16,1 km/h (3 Bft) 100,00 %
28.09.2020 12:38 12,7 C 12,2 C 11,7 C 91 % 1010,0 hPa 0,0 l/m 0 min 0 min 66 W/m 12,9 km/h (3 Bft) 97,87 %
28.09.2020 12:40 12,7 C 12,2 C 11,7 C 91 % 1009,9 hPa 0,0 l/m 0 min 0 min 72 W/m 12,9 km/h (3 Bft) 100,00 %
28.09.2020 12:42 12,7 C 12,2 C 11,7 C 91 % 1009,9 hPa 0,0 l/m 0 min 0 min 80 W/m 12,9 km/h (3 Bft) 100,00 %
28.09.2020 12:44 12,7 C 12,2 C 11,7 C 91 % 1009,9 hPa 0,0 l/m 0 min 0 min 84 W/m 6,4 km/h (2 Bft) 97,92 %
28.09.2020 12:46 12,7 C 12,8 C 11,7 C 91 % 1010,0 hPa 0,0 l/m 0 min 0 min 82 W/m 12,9 km/h (3 Bft) 100,00 %
28.09.2020 12:48 12,8 C 12,8 C 11,7 C 91 % 1010,0 hPa 0,0 l/m 0 min 0 min 79 W/m 12,9 km/h (3 Bft) 100,00 %
28.09.2020 12:50 12,8 C 12,8 C 11,7 C 91 % 1010,1 hPa 0,0 l/m 0 min 0 min 78 W/m 16,1 km/h (3 Bft) 97,83 %
28.09.2020 12:52 12,8 C 12,8 C 11,7 C 90 % 1010,1 hPa 0,0 l/m 0 min 0 min 75 W/m 16,1 km/h (3 Bft) 100,00 %
28.09.2020 12:54 12,7 C 12,8 C 11,7 C 90 % 1010,1 hPa 0,0 l/m 0 min 0 min 71 W/m 12,9 km/h (3 Bft) 100,00 %
28.09.2020 12:56 12,7 C 12,8 C 11,7 C 90 % 1010,1 hPa 0,0 l/m 0 min 0 min 67 W/m 6,4 km/h (2 Bft) 100,00 %
28.09.2020 12:58 12,7 C 12,8 C 11,7 C 90 % 1010,2 hPa 0,2 l/m 0 min 0 min 66 W/m 6,4 km/h (2 Bft) 100,00 %
28.09.2020 13:00 12,7 C 12,8 C 11,7 C 90 % 1010,2 hPa 0,0 l/m 0 min 0 min 68 W/m 6,4 km/h (2 Bft) 100,00 %
28.09.2020 13:02 12,8 C 12,8 C 11,7 C 90 % 1010,2 hPa 0,0 l/m 0 min 0 min 74 W/m 16,1 km/h (3 Bft) 97,87 %
28.09.2020 13:04 12,8 C 12,8 C 11,7 C 90 % 1010,2 hPa 0,0 l/m 0 min 0 min 81 W/m 16,1 km/h (3 Bft) 100,00 %
28.09.2020 13:06 12,8 C 12,8 C 11,7 C 90 % 1010,1 hPa 0,0 l/m 0 min 0 min 89 W/m 9,7 km/h (2 Bft) 100,00 %
28.09.2020 13:08 12,8 C 12,8 C 11,7 C 90 % 1010,1 hPa 0,0 l/m 0 min 0 min 90 W/m 12,9 km/h (3 Bft) 100,00 %
28.09.2020 13:10 12,8 C 12,8 C 11,7 C 89 % 1010,1 hPa 0,0 l/m 0 min 0 min 90 W/m 12,9 km/h (3 Bft) 100,00 %
28.09.2020 13:12 12,8 C 12,8 C 11,7 C 89 % 1010,1 hPa 0,0 l/m 0 min 0 min 97 W/m 12,9 km/h (3 Bft) 97,73 %
28.09.2020 13:14 12,8 C 12,8 C 11,7 C 89 % 1010,1 hPa 0,0 l/m 0 min 0 min 103 W/m 6,4 km/h (2 Bft) 100,00 %
28.09.2020 13:16 12,8 C 12,8 C 11,7 C 89 % 1010,2 hPa 0,0 l/m 0 min 0 min 104 W/m 6,4 km/h (2 Bft) 100,00 %
28.09.2020 13:18 12,8 C 12,8 C 11,7 C 89 % 1010,2 hPa 0,0 l/m 0 min 0 min 106 W/m 12,9 km/h (3 Bft) 100,00 %
28.09.2020 13:20 12,8 C 12,8 C 11,7 C 89 % 1010,2 hPa 0,0 l/m 0 min 0 min 114 W/m 12,9 km/h (3 Bft) 97,87 %
28.09.2020 13:22 12,8 C 12,8 C 11,7 C 89 % 1010,2 hPa 0,0 l/m 0 min 0 min 117 W/m 19,3 km/h (3 Bft) 97,87 %
28.09.2020 13:24 12,8 C 12,8 C 11,7 C 89 % 1010,2 hPa 0,0 l/m 0 min 0 min 112 W/m 12,9 km/h (3 Bft) 100,00 %
28.09.2020 13:26 12,8 C 12,8 C 11,7 C 89 % 1010,2 hPa 0,0 l/m 0 min 0 min 113 W/m 9,7 km/h (2 Bft) 97,87 %
28.09.2020 13:28 12,8 C 12,8 C 11,7 C 89 % 1010,2 hPa 0,0 l/m 0 min 0 min 123 W/m 9,7 km/h (2 Bft) 100,00 %
28.09.2020 13:30 12,8 C 12,8 C 11,7 C 89 % 1010,3 hPa 0,0 l/m 0 min 0 min 140 W/m 19,3 km/h (3 Bft) 100,00 %
28.09.2020 13:32 12,8 C 12,8 C 11,7 C 89 % 1010,2 hPa 0,0 l/m 0 min 0 min 148 W/m 9,7 km/h (2 Bft) 100,00 %
28.09.2020 13:34 12,8 C 12,8 C 11,7 C 89 % 1010,3 hPa 0,0 l/m 0 min 0 min 138 W/m 19,3 km/h (3 Bft) 97,87 %
28.09.2020 13:36 12,8 C 12,8 C 11,7 C 88 % 1010,3 hPa 0,0 l/m 0 min 0 min 115 W/m 12,9 km/h (3 Bft) 100,00 %
28.09.2020 13:38 12,8 C 12,8 C 11,7 C 88 % 1010,3 hPa 0,0 l/m 0 min 0 min 106 W/m 6,4 km/h (2 Bft) 95,74 %
28.09.2020 13:40 12,9 C 12,8 C 11,7 C 88 % 1010,3 hPa 0,0 l/m 0 min 0 min 110 W/m 12,9 km/h (3 Bft) 97,87 %
28.09.2020 13:42 12,9 C 12,8 C 11,7 C 88 % 1010,3 hPa 0,0 l/m 0 min 0 min 120 W/m 16,1 km/h (3 Bft) 95,74 %
28.09.2020 13:44 12,9 C 12,8 C 11,7 C 88 % 1010,3 hPa 0,0 l/m 0 min 0 min 127 W/m 16,1 km/h (3 Bft) 97,87 %
28.09.2020 13:46 12,9 C 12,8 C 11,7 C 88 % 1010,3 hPa 0,0 l/m 0 min 0 min 125 W/m 9,7 km/h (2 Bft) 93,48 %
28.09.2020 13:48 12,9 C 12,8 C 11,7 C 88 % 1010,3 hPa 0,0 l/m 0 min 0 min 112 W/m 12,9 km/h (3 Bft) 95,74 %
28.09.2020 13:50 12,9 C 12,8 C 11,7 C 88 % 1010,3 hPa 0,0 l/m 0 min 0 min 102 W/m 16,1 km/h (3 Bft) 95,74 %
28.09.2020 13:52 12,9 C 12,8 C 11,7 C 88 % 1010,3 hPa 0,0 l/m 0 min 0 min 98 W/m 19,3 km/h (3 Bft) 95,74 %
28.09.2020 13:54 12,9 C 12,8 C 11,7 C 88 % 1010,3 hPa 0,0 l/m 0 min 0 min 98 W/m 16,1 km/h (3 Bft) 93,62 %
28.09.2020 13:56 12,9 C 12,8 C 11,7 C 87 % 1010,3 hPa 0,0 l/m 0 min 0 min 95 W/m 12,9 km/h (3 Bft) 95,74 %
28.09.2020 13:58 12,9 C 12,8 C 11,7 C 87 % 1010,4 hPa 0,0 l/m 0 min 0 min 88 W/m 12,9 km/h (3 Bft) 93,62 %
28.09.2020 14:00 12,9 C 12,2 C 11,7 C 87 % 1010,4 hPa 0,0 l/m 0 min 0 min 83 W/m 12,9 km/h (3 Bft) 93,48 %
28.09.2020 14:02 12,9 C 11,7 C 11,7 C 87 % 1010,4 hPa 0,0 l/m 0 min 0 min 79 W/m 22,5 km/h (4 Bft) 95,74 %
28.09.2020 14:04 12,9 C 11,7 C 11,7 C 86 % 1010,4 hPa 0,0 l/m 0 min 2 min 79 W/m 16,1 km/h (3 Bft) 95,74 %
28.09.2020 14:06 12,8 C 12,2 C 11,7 C 86 % 1010,4 hPa 0,0 l/m 0 min 0 min 88 W/m 19,3 km/h (3 Bft) 95,74 %
28.09.2020 14:08 12,8 C 12,2 C 11,7 C 86 % 1010,4 hPa 0,0 l/m 0 min 0 min 91 W/m 22,5 km/h (4 Bft) 95,74 %
28.09.2020 14:10 12,8 C 12,2 C 11,7 C 86 % 1010,5 hPa 0,0 l/m 0 min 0 min 93 W/m 16,1 km/h (3 Bft) 95,65 %
28.09.2020 14:12 12,8 C 11,7 C 11,7 C 86 % 1010,5 hPa 0,0 l/m 0 min 0 min 92 W/m 25,7 km/h (4 Bft) 93,62 %
28.09.2020 14:14 12,8 C 12,2 C 11,7 C 85 % 1010,4 hPa 0,0 l/m 0 min 0 min 91 W/m 25,7 km/h (4 Bft) 91,67 %
28.09.2020 14:16 12,8 C 12,2 C 11,7 C 85 % 1010,5 hPa 0,0 l/m 0 min 0 min 98 W/m 25,7 km/h (4 Bft) 93,62 %
28.09.2020 14:18 12,7 C 12,2 C 11,7 C 85 % 1010,5 hPa 0,0 l/m 0 min 0 min 110 W/m 19,3 km/h (3 Bft) 95,74 %
28.09.2020 14:20 12,7 C 12,2 C 11,7 C 85 % 1010,5 hPa 0,0 l/m 0 min 0 min 108 W/m 32,2 km/h (5 Bft) 95,74 %
28.09.2020 14:22 12,7 C 12,2 C 11,7 C 85 % 1010,4 hPa 0,0 l/m 0 min 0 min 112 W/m 25,7 km/h (4 Bft) 93,48 %
28.09.2020 14:24 12,7 C 12,2 C 11,7 C 85 % 1010,5 hPa 0,0 l/m 0 min 0 min 114 W/m 22,5 km/h (4 Bft) 95,74 %
28.09.2020 14:26 12,7 C 12,2 C 11,7 C 85 % 1010,5 hPa 0,0 l/m 0 min 0 min 111 W/m 19,3 km/h (3 Bft) 95,74 %
28.09.2020 14:28 12,6 C 12,2 C 11,7 C 85 % 1010,4 hPa 0,0 l/m 0 min 0 min 99 W/m 29,0 km/h (5 Bft) 91,49 %
28.09.2020 14:30 12,6 C 12,2 C 11,1 C 85 % 1010,4 hPa 0,0 l/m 0 min 0 min 93 W/m 16,1 km/h (3 Bft) 95,74 %
28.09.2020 14:32 12,6 C 12,2 C 11,7 C 85 % 1010,5 hPa 0,0 l/m 0 min 0 min 97 W/m 25,7 km/h (4 Bft) 95,65 %
28.09.2020 14:34 12,6 C 12,2 C 11,7 C 85 % 1010,5 hPa 0,0 l/m 0 min 2 min 92 W/m 22,5 km/h (4 Bft) 93,62 %
28.09.2020 14:36 12,6 C 12,2 C 11,1 C 85 % 1010,5 hPa 0,0 l/m 0 min 0 min 77 W/m 19,3 km/h (3 Bft) 97,87 %
28.09.2020 14:38 12,6 C 12,2 C 11,1 C 85 % 1010,5 hPa 0,0 l/m 0 min 0 min 67 W/m 19,3 km/h (3 Bft) 100,00 %
28.09.2020 14:40 12,6 C 12,2 C 11,1 C 85 % 1010,5 hPa 0,0 l/m 0 min 0 min 70 W/m 9,7 km/h (2 Bft) 100,00 %
28.09.2020 14:42 12,6 C 12,2 C 11,1 C 85 % 1010,4 hPa 0,0 l/m 0 min 0 min 80 W/m 19,3 km/h (3 Bft) 97,87 %
28.09.2020 14:44 12,6 C 11,7 C 11,1 C 86 % 1010,4 hPa 0,0 l/m 0 min 0 min 84 W/m 19,3 km/h (3 Bft) 95,65 %
28.09.2020 14:46 12,6 C 11,7 C 11,1 C 86 % 1010,3 hPa 0,0 l/m 0 min 0 min 85 W/m 16,1 km/h (3 Bft) 97,87 %
28.09.2020 14:48 12,5 C 11,7 C 11,1 C 86 % 1010,3 hPa 0,0 l/m 0 min 0 min 85 W/m 16,1 km/h (3 Bft) 97,87 %
28.09.2020 14:50 12,5 C 11,7 C 11,1 C 86 % 1010,4 hPa 0,0 l/m 0 min 0 min 84 W/m 19,3 km/h (3 Bft) 95,74 %
28.09.2020 14:52 12,5 C 11,7 C 11,1 C 86 % 1010,4 hPa 0,0 l/m 0 min 0 min 89 W/m 16,1 km/h (3 Bft) 91,49 %
28.09.2020 14:54 12,4 C 11,7 C 11,1 C 86 % 1010,4 hPa 0,0 l/m 0 min 0 min 92 W/m 19,3 km/h (3 Bft) 97,87 %
28.09.2020 14:56 12,4 C 11,7 C 11,1 C 86 % 1010,3 hPa 0,0 l/m 0 min 0 min 94 W/m 22,5 km/h (4 Bft) 97,83 %
28.09.2020 14:58 12,4 C 12,2 C 11,1 C 86 % 1010,3 hPa 0,0 l/m 0 min 0 min 85 W/m 12,9 km/h (3 Bft) 97,87 %
28.09.2020 15:00 12,4 C 12,2 C 11,1 C 86 % 1010,4 hPa 0,0 l/m 0 min 0 min 71 W/m 9,7 km/h (2 Bft) 97,87 %
28.09.2020 15:02 12,4 C 12,2 C 11,1 C 86 % 1010,3 hPa 0,0 l/m 0 min 0 min 66 W/m 16,1 km/h (3 Bft) 97,87 %
28.09.2020 15:04 12,4 C 12,2 C 11,1 C 86 % 1010,4 hPa 0,0 l/m 0 min 0 min 70 W/m 16,1 km/h (3 Bft) 97,87 %
28.09.2020 15:06 12,4 C 12,2 C 11,1 C 86 % 1010,3 hPa 0,0 l/m 0 min 0 min 81 W/m 12,9 km/h (3 Bft) 95,74 %
28.09.2020 15:08 12,4 C 12,2 C 11,1 C 86 % 1010,3 hPa 0,0 l/m 0 min 0 min 96 W/m 12,9 km/h (3 Bft) 97,83 %
28.09.2020 15:10 12,4 C 12,2 C 11,1 C 85 % 1010,3 hPa 0,0 l/m 0 min 0 min 102 W/m 12,9 km/h (3 Bft) 95,74 %
28.09.2020 15:12 12,4 C 12,2 C 11,1 C 85 % 1010,3 hPa 0,0 l/m 0 min 0 min 101 W/m 12,9 km/h (3 Bft) 97,87 %
28.09.2020 15:14 12,4 C 12,2 C 11,1 C 85 % 1010,3 hPa 0,0 l/m 0 min 0 min 100 W/m 12,9 km/h (3 Bft) 97,87 %
28.09.2020 15:16 12,4 C 12,2 C 11,7 C 85 % 1010,3 hPa 0,0 l/m 0 min 0 min 99 W/m 12,9 km/h (3 Bft) 97,87 %
28.09.2020 15:18 12,4 C 12,8 C 11,7 C 85 % 1010,3 hPa 0,0 l/m 0 min 0 min 100 W/m 16,1 km/h (3 Bft) 97,87 %
28.09.2020 15:20 12,4 C 12,8 C 11,7 C 85 % 1010,3 hPa 0,0 l/m 0 min 0 min 100 W/m 9,7 km/h (2 Bft) 97,83 %
28.09.2020 15:22 12,4 C 12,8 C 11,7 C 85 % 1010,3 hPa 0,0 l/m 0 min 0 min 99 W/m 16,1 km/h (3 Bft) 97,87 %
28.09.2020 15:24 12,4 C 12,8 C 11,7 C 85 % 1010,3 hPa 0,0 l/m 0 min 0 min 96 W/m 6,4 km/h (2 Bft) 97,87 %
28.09.2020 15:26 12,5 C 12,8 C 11,7 C 85 % 1010,3 hPa 0,0 l/m 0 min 0 min 96 W/m 16,1 km/h (3 Bft) 97,87 %
28.09.2020 15:28 12,5 C 12,8 C 11,7 C 85 % 1010,3 hPa 0,0 l/m 0 min 0 min 97 W/m 9,7 km/h (2 Bft) 95,74 %
28.09.2020 15:30 12,5 C 12,8 C 11,7 C 85 % 1010,3 hPa 0,0 l/m 0 min 0 min 96 W/m 16,1 km/h (3 Bft) 97,87 %
28.09.2020 15:32 12,6 C 12,8 C 11,7 C 85 % 1010,2 hPa 0,0 l/m 0 min 0 min 94 W/m 16,1 km/h (3 Bft) 97,83 %
28.09.2020 15:34 12,6 C 12,8 C 11,7 C 85 % 1010,2 hPa 0,0 l/m 0 min 0 min 92 W/m 16,1 km/h (3 Bft) 97,87 %
28.09.2020 15:36 12,6 C 12,8 C 11,7 C 85 % 1010,2 hPa 0,0 l/m 0 min 0 min 89 W/m 12,9 km/h (3 Bft) 95,74 %
28.09.2020 15:38 12,6 C 12,8 C 11,7 C 85 % 1010,1 hPa 0,0 l/m 0 min 0 min 83 W/m 12,9 km/h (3 Bft) 100,00 %
28.09.2020 15:40 12,6 C 12,8 C 11,7 C 85 % 1010,2 hPa 0,0 l/m 0 min 0 min 78 W/m 9,7 km/h (2 Bft) 100,00 %
28.09.2020 15:42 12,7 C 12,8 C 11,7 C 85 % 1010,1 hPa 0,0 l/m 0 min 0 min 80 W/m 19,3 km/h (3 Bft) 100,00 %
28.09.2020 15:44 12,7 C 12,8 C 11,7 C 85 % 1010,2 hPa 0,0 l/m 0 min 0 min 88 W/m 12,9 km/h (3 Bft) 100,00 %
28.09.2020 15:46 12,7 C 12,8 C 11,7 C 84 % 1010,2 hPa 0,0 l/m 0 min 0 min 91 W/m 12,9 km/h (3 Bft) 100,00 %
28.09.2020 15:48 12,7 C 12,8 C 11,7 C 84 % 1010,1 hPa 0,0 l/m 0 min 0 min 95 W/m 6,4 km/h (2 Bft) 97,87 %
28.09.2020 15:50 12,7 C 12,8 C 11,7 C 84 % 1010,2 hPa 0,0 l/m 0 min 0 min 98 W/m 12,9 km/h (3 Bft) 100,00 %
28.09.2020 15:52 12,8 C 12,8 C 11,7 C 84 % 1010,2 hPa 0,0 l/m 0 min 0 min 91 W/m 16,1 km/h (3 Bft) 100,00 %
28.09.2020 15:54 12,8 C 12,8 C 11,7 C 84 % 1010,3 hPa 0,0 l/m 0 min 0 min 83 W/m 19,3 km/h (3 Bft) 97,83 %
28.09.2020 15:56 12,8 C 12,8 C 11,7 C 84 % 1010,3 hPa 0,0 l/m 0 min 0 min 77 W/m 19,3 km/h (3 Bft) 100,00 %
28.09.2020 15:58 12,8 C 12,8 C 11,7 C 84 % 1010,3 hPa 0,0 l/m 0 min 0 min 70 W/m 16,1 km/h (3 Bft) 97,87 %
28.09.2020 16:00 12,8 C 12,8 C 11,7 C 84 % 1010,3 hPa 0,0 l/m 0 min 0 min 68 W/m 9,7 km/h (2 Bft) 100,00 %
28.09.2020 16:02 12,8 C 12,8 C 11,7 C 84 % 1010,3 hPa 0,0 l/m 0 min 0 min 66 W/m 6,4 km/h (2 Bft) 97,87 %
28.09.2020 16:04 12,8 C 12,8 C 11,7 C 84 % 1010,3 hPa 0,0 l/m 0 min 0 min 65 W/m 12,9 km/h (3 Bft) 100,00 %
28.09.2020 16:06 12,9 C 12,8 C 11,7 C 84 % 1010,3 hPa 0,0 l/m 0 min 0 min 63 W/m 12,9 km/h (3 Bft) 100,00 %
28.09.2020 16:08 12,9 C 12,8 C 11,7 C 84 % 1010,3 hPa 0,0 l/m 0 min 0 min 60 W/m 12,9 km/h (3 Bft) 100,00 %
28.09.2020 16:10 12,9 C 12,8 C 11,7 C 84 % 1010,3 hPa 0,0 l/m 0 min 0 min 56 W/m 12,9 km/h (3 Bft) 100,00 %
28.09.2020 16:12 12,9 C 12,8 C 11,7 C 84 % 1010,3 hPa 0,0 l/m 0 min 0 min 52 W/m 12,9 km/h (3 Bft) 100,00 %
28.09.2020 16:14 12,9 C 12,2 C 11,7 C 84 % 1010,3 hPa 0,0 l/m 0 min 0 min 51 W/m 19,3 km/h (3 Bft) 100,00 %
28.09.2020 16:16 12,9 C 12,8 C 11,7 C 84 % 1010,2 hPa 0,0 l/m 0 min 0 min 51 W/m 6,4 km/h (2 Bft) 100,00 %
28.09.2020 16:18 12,9 C 12,8 C 11,7 C 84 % 1010,2 hPa 0,0 l/m 0 min 0 min 51 W/m 12,9 km/h (3 Bft) 97,83 %
28.09.2020 16:20 12,9 C 12,8 C 11,7 C 84 % 1010,2 hPa 0,0 l/m 0 min 0 min 51 W/m 16,1 km/h (3 Bft) 95,74 %
28.09.2020 16:22 12,9 C 12,8 C 11,7 C 84 % 1010,2 hPa 0,0 l/m 0 min 0 min 51 W/m 16,1 km/h (3 Bft) 97,87 %
28.09.2020 16:24 12,9 C 12,8 C 11,7 C 84 % 1010,2 hPa 0,0 l/m 0 min 0 min 53 W/m 9,7 km/h (2 Bft) 97,87 %
28.09.2020 16:26 12,9 C 12,2 C 11,7 C 84 % 1010,2 hPa 0,0 l/m 0 min 0 min 55 W/m 16,1 km/h (3 Bft) 97,87 %
28.09.2020 16:28 12,9 C 12,2 C 11,7 C 84 % 1010,2 hPa 0,0 l/m 0 min 0 min 55 W/m 16,1 km/h (3 Bft) 97,87 %
28.09.2020 16:30 13,0 C 12,2 C 11,7 C 84 % 1010,2 hPa 0,0 l/m 0 min 0 min 52 W/m 16,1 km/h (3 Bft) 97,83 %
28.09.2020 16:32 13,0 C 12,2 C 11,7 C 84 % 1010,2 hPa 0,0 l/m 0 min 0 min 49 W/m 16,1 km/h (3 Bft) 95,74 %
28.09.2020 16:34 13,0 C 12,2 C 11,7 C 84 % 1010,2 hPa 0,0 l/m 0 min 0 min 49 W/m 12,9 km/h (3 Bft) 93,62 %
28.09.2020 16:36 13,0 C 12,2 C 11,7 C 84 % 1010,2 hPa 0,0 l/m 0 min 0 min 48 W/m 12,9 km/h (3 Bft) 97,87 %
28.09.2020 16:38 13,0 C 12,2 C 11,7 C 84 % 1010,2 hPa 0,0 l/m 0 min 0 min 46 W/m 12,9 km/h (3 Bft) 97,87 %
28.09.2020 16:40 13,0 C 12,2 C 11,7 C 84 % 1010,2 hPa 0,0 l/m 0 min 0 min 45 W/m 12,9 km/h (3 Bft) 95,74 %
28.09.2020 16:44 13,0 C 12,2 C 11,7 C 84 % 1010,3 hPa 0,0 l/m 0 min 0 min 42 W/m 3,2 km/h (1 Bft) 97,94 %
28.09.2020 16:46 13,0 C 12,2 C 11,7 C 85 % 1010,3 hPa 0,0 l/m 0 min 0 min 41 W/m 6,4 km/h (2 Bft) 97,87 %
28.09.2020 16:48 13,0 C 12,8 C 11,7 C 85 % 1010,3 hPa 0,0 l/m 0 min 0 min 42 W/m 3,2 km/h (1 Bft) 97,87 %
28.09.2020 16:50 13,0 C 12,2 C 11,7 C 85 % 1010,3 hPa 0,0 l/m 0 min 0 min 44 W/m 9,7 km/h (2 Bft) 95,74 %
28.09.2020 16:52 13,0 C 12,2 C 11,7 C 85 % 1010,3 hPa 0,0 l/m 0 min 0 min 43 W/m 12,9 km/h (3 Bft) 95,74 %
28.09.2020 16:54 13,0 C 12,2 C 11,7 C 85 % 1010,4 hPa 0,0 l/m 0 min 0 min 40 W/m 12,9 km/h (3 Bft) 100,00 %
28.09.2020 16:56 13,0 C 12,2 C 11,7 C 85 % 1010,4 hPa 0,0 l/m 0 min 0 min 37 W/m 6,4 km/h (2 Bft) 92,86 %
28.09.2020 16:58 13,0 C 12,2 C 11,7 C 85 % 1010,4 hPa 0,0 l/m 0 min 0 min 37 W/m 6,4 km/h (2 Bft) 93,62 %
28.09.2020 17:00 13,0 C 12,2 C 11,7 C 85 % 1010,4 hPa 0,0 l/m 0 min 0 min 38 W/m 12,9 km/h (3 Bft) 95,74 %
28.09.2020 17:02 13,0 C 12,2 C 11,7 C 85 % 1010,3 hPa 0,0 l/m 0 min 0 min 43 W/m 12,9 km/h (3 Bft) 93,75 %
28.09.2020 17:04 13,0 C 12,2 C 11,7 C 85 % 1010,4 hPa 0,0 l/m 0 min 0 min 51 W/m 9,7 km/h (2 Bft) 95,56 %
28.09.2020 17:06 12,9 C 12,2 C 11,7 C 85 % 1010,4 hPa 0,0 l/m 0 min 0 min 49 W/m 12,9 km/h (3 Bft) 96,30 %
28.09.2020 17:08 12,9 C 12,2 C 11,7 C 85 % 1010,5 hPa 0,0 l/m 0 min 0 min 40 W/m 6,4 km/h (2 Bft) 97,37 %
28.09.2020 17:10 13,0 C 12,2 C 11,7 C 85 % 1010,5 hPa 0,0 l/m 0 min 0 min 35 W/m 6,4 km/h (2 Bft) 97,87 %
28.09.2020 17:12 13,0 C 12,2 C 11,7 C 85 % 1010,5 hPa 0,0 l/m 0 min 0 min 33 W/m 6,4 km/h (2 Bft) 93,75 %
28.09.2020 17:14 13,0 C 12,2 C 11,7 C 85 % 1010,5 hPa 0,0 l/m 0 min 0 min 33 W/m 6,4 km/h (2 Bft) 97,87 %
28.09.2020 17:16 13,0 C 12,2 C 11,7 C 85 % 1010,5 hPa 0,0 l/m 0 min 0 min 38 W/m 6,4 km/h (2 Bft) 93,48 %
28.09.2020 17:18 13,0 C 12,2 C 11,7 C 85 % 1010,4 hPa 0,0 l/m 0 min 0 min 40 W/m 6,4 km/h (2 Bft) 97,87 %
28.09.2020 17:20 12,9 C 12,2 C 11,7 C 85 % 1010,4 hPa 0,0 l/m 0 min 0 min 41 W/m 6,4 km/h (2 Bft) 97,87 %
28.09.2020 17:22 12,9 C 12,2 C 11,7 C 85 % 1010,5 hPa 0,0 l/m 0 min 0 min 42 W/m 12,9 km/h (3 Bft) 96,43 %
28.09.2020 17:24 12,9 C 12,2 C 11,7 C 85 % 1010,5 hPa 0,0 l/m 0 min 0 min 44 W/m 6,4 km/h (2 Bft) 94,29 %
28.09.2020 17:26 12,9 C 12,8 C 11,7 C 85 % 1010,5 hPa 0,0 l/m 0 min 0 min 46 W/m 6,4 km/h (2 Bft) 96,00 %
28.09.2020 17:28 13,0 C 12,8 C 11,7 C 86 % 1010,5 hPa 0,0 l/m 0 min 0 min 46 W/m 6,4 km/h (2 Bft) 97,87 %
28.09.2020 17:30 13,0 C 12,8 C 11,7 C 86 % 1010,5 hPa 0,0 l/m 0 min 0 min 46 W/m 6,4 km/h (2 Bft) 95,65 %
28.09.2020 17:32 13,0 C 12,8 C 11,7 C 86 % 1010,5 hPa 0,0 l/m 0 min 0 min 49 W/m 6,4 km/h (2 Bft) 97,87 %
28.09.2020 17:34 12,9 C 12,8 C 11,7 C 86 % 1010,5 hPa 0,0 l/m 0 min 0 min 49 W/m 16,1 km/h (3 Bft) 97,87 %
28.09.2020 17:36 13,0 C 12,8 C 11,7 C 86 % 1010,5 hPa 0,0 l/m 0 min 0 min 47 W/m 6,4 km/h (2 Bft) 97,87 %
28.09.2020 17:38 13,0 C 12,8 C 11,7 C 86 % 1010,5 hPa 0,0 l/m 0 min 0 min 45 W/m 6,4 km/h (2 Bft) 95,74 %
28.09.2020 17:40 13,0 C 12,8 C 11,7 C 86 % 1010,5 hPa 0,0 l/m 0 min 0 min 45 W/m 12,9 km/h (3 Bft) 93,62 %
28.09.2020 17:42 13,0 C 12,8 C 11,7 C 86 % 1010,6 hPa 0,0 l/m 0 min 0 min 45 W/m 6,4 km/h (2 Bft) 97,83 %
28.09.2020 17:44 13,0 C 12,8 C 11,7 C 86 % 1010,6 hPa 0,0 l/m 0 min 0 min 41 W/m 12,9 km/h (3 Bft) 97,87 %
28.09.2020 17:46 13,0 C 12,2 C 11,7 C 86 % 1010,6 hPa 0,0 l/m 0 min 0 min 34 W/m 6,4 km/h (2 Bft) 94,44 %
28.09.2020 17:48 13,0 C 12,2 C 11,7 C 86 % 1010,6 hPa 0,0 l/m 0 min 0 min 27 W/m 6,4 km/h (2 Bft) 100,00 %
28.09.2020 17:50 13,0 C 12,2 C 11,7 C 86 % 1010,7 hPa 0,0 l/m 0 min 0 min 24 W/m 6,4 km/h (2 Bft) 97,87 %
28.09.2020 17:52 13,0 C 12,2 C 11,7 C 86 % 1010,7 hPa 0,0 l/m 0 min 0 min 25 W/m 6,4 km/h (2 Bft) 95,92 %
28.09.2020 17:54 13,0 C 12,2 C 11,7 C 86 % 1010,7 hPa 0,0 l/m 0 min 0 min 25 W/m 6,4 km/h (2 Bft) 97,83 %
28.09.2020 17:56 13,0 C 12,2 C 11,7 C 86 % 1010,8 hPa 0,0 l/m 0 min 0 min 25 W/m 0,0 km/h (0 Bft) 97,87 %
28.09.2020 17:58 13,0 C 12,2 C 11,7 C 86 % 1010,7 hPa 0,0 l/m 0 min 0 min 26 W/m 6,4 km/h (2 Bft) 97,87 %
28.09.2020 18:00 13,0 C 12,2 C 11,7 C 86 % 1010,7 hPa 0,0 l/m 0 min 0 min 26 W/m 6,4 km/h (2 Bft) 97,87 %
28.09.2020 18:02 13,0 C 12,2 C 11,7 C 86 % 1010,8 hPa 0,0 l/m 0 min 0 min 29 W/m 3,2 km/h (1 Bft) 90,57 %
28.09.2020 18:04 13,0 C 12,2 C 11,7 C 86 % 1010,8 hPa 0,0 l/m 0 min 0 min 30 W/m 6,4 km/h (2 Bft) 97,37 %
28.09.2020 18:08 13,0 C 12,2 C 11,7 C 86 % 1010,7 hPa 0,0 l/m 0 min 0 min 33 W/m 3,2 km/h (1 Bft) 97,37 %
28.09.2020 18:10 13,0 C 12,2 C 11,7 C 87 % 1010,7 hPa 0,0 l/m 0 min 0 min 33 W/m 6,4 km/h (2 Bft) 98,01 %
28.09.2020 18:12 13,0 C 12,2 C 11,7 C 87 % 1010,7 hPa 0,0 l/m 0 min 0 min 35 W/m 6,4 km/h (2 Bft) 97,83 %
28.09.2020 18:14 13,0 C 12,8 C 11,7 C 87 % 1010,7 hPa 0,0 l/m 0 min 0 min 35 W/m 3,2 km/h (1 Bft) 97,87 %
28.09.2020 18:16 13,0 C 12,8 C 11,7 C 87 % 1010,7 hPa 0,0 l/m 0 min 0 min 35 W/m 0,0 km/h (0 Bft) 95,74 %
28.09.2020 18:18 13,0 C 12,8 C 11,7 C 87 % 1010,7 hPa 0,0 l/m 0 min 0 min 34 W/m 0,0 km/h (0 Bft) 97,87 %
28.09.2020 18:20 13,0 C 12,8 C 11,7 C 87 % 1010,8 hPa 0,0 l/m 0 min 0 min 30 W/m 0,0 km/h (0 Bft) 97,87 %
28.09.2020 18:22 13,0 C 12,8 C 11,7 C 87 % 1010,8 hPa 0,0 l/m 0 min 0 min 27 W/m 12,9 km/h (3 Bft) 97,83 %
28.09.2020 18:24 13,0 C 12,8 C 11,7 C 87 % 1010,8 hPa 0,0 l/m 0 min 0 min 25 W/m 6,4 km/h (2 Bft) 95,74 %
28.09.2020 18:26 13,0 C 12,2 C 11,7 C 87 % 1010,8 hPa 0,0 l/m 0 min 0 min 23 W/m 3,2 km/h (1 Bft) 97,87 %
28.09.2020 18:28 13,0 C 12,2 C 11,7 C 87 % 1010,9 hPa 0,0 l/m 0 min 0 min 20 W/m 6,4 km/h (2 Bft) 97,87 %
28.09.2020 18:30 13,0 C 12,2 C 11,7 C 87 % 1010,8 hPa 0,0 l/m 0 min 0 min 19 W/m 3,2 km/h (1 Bft) 97,87 %
28.09.2020 18:32 13,1 C 12,2 C 11,7 C 87 % 1010,9 hPa 0,0 l/m 0 min 0 min 18 W/m 12,9 km/h (3 Bft) 97,87 %
28.09.2020 18:34 13,0 C 12,2 C 11,7 C 87 % 1010,9 hPa 0,0 l/m 0 min 0 min 16 W/m 6,4 km/h (2 Bft) 97,83 %
28.09.2020 18:36 13,0 C 12,2 C 11,7 C 87 % 1010,9 hPa 0,0 l/m 0 min 0 min 16 W/m 6,4 km/h (2 Bft) 97,87 %
28.09.2020 18:38 13,0 C 12,2 C 11,7 C 87 % 1010,8 hPa 0,0 l/m 0 min 0 min 14 W/m 3,2 km/h (1 Bft) 97,87 %
28.09.2020 18:40 13,0 C 12,2 C 11,7 C 87 % 1010,9 hPa 0,0 l/m 0 min 0 min 14 W/m 6,4 km/h (2 Bft) 97,87 %
28.09.2020 18:42 13,0 C 12,2 C 11,7 C 87 % 1010,9 hPa 0,0 l/m 0 min 0 min 14 W/m 3,2 km/h (1 Bft) 97,87 %
28.09.2020 18:44 13,0 C 12,2 C 11,7 C 87 % 1010,9 hPa 0,0 l/m 0 min 0 min 12 W/m 6,4 km/h (2 Bft) 100,00 %
28.09.2020 18:46 13,0 C 12,2 C 11,7 C 87 % 1010,9 hPa 0,0 l/m 0 min 0 min 11 W/m 3,2 km/h (1 Bft) 100,00 %
28.09.2020 18:48 13,0 C 12,2 C 11,7 C 87 % 1010,9 hPa 0,0 l/m 0 min 0 min 11 W/m 0,0 km/h (0 Bft) 100,00 %
28.09.2020 18:50 13,0 C 12,2 C 11,7 C 87 % 1010,9 hPa 0,0 l/m 0 min 0 min 9 W/m 0,0 km/h (0 Bft) 100,00 %
28.09.2020 18:52 13,0 C 12,2 C 11,7 C 87 % 1010,9 hPa 0,0 l/m 0 min 0 min 7 W/m 0,0 km/h (0 Bft) 100,00 %
28.09.2020 18:54 13,0 C 12,2 C 11,7 C 87 % 1010,9 hPa 0,0 l/m 0 min 0 min 6 W/m 6,4 km/h (2 Bft) 100,00 %
28.09.2020 18:56 13,0 C 12,2 C 11,7 C 87 % 1010,9 hPa 0,0 l/m 0 min 0 min 5 W/m 3,2 km/h (1 Bft) 100,00 %
28.09.2020 18:58 13,0 C 12,2 C 11,7 C 87 % 1011,0 hPa 0,0 l/m 0 min 0 min 4 W/m 6,4 km/h (2 Bft) 97,83 %
28.09.2020 19:00 13,0 C 12,2 C 11,7 C 87 % 1011,0 hPa 0,0 l/m 0 min 0 min 0 W/m 0,0 km/h (0 Bft) 97,87 %
28.09.2020 19:02 13,0 C 12,2 C 11,7 C 87 % 1011,1 hPa 0,0 l/m 0 min 0 min 0 W/m 0,0 km/h (0 Bft) 97,87 %
28.09.2020 19:04 13,0 C 12,2 C 11,7 C 87 % 1011,1 hPa 0,0 l/m 0 min 0 min 0 W/m 0,0 km/h (0 Bft) 97,87 %
28.09.2020 19:06 13,0 C 12,2 C 11,7 C 87 % 1011,1 hPa 0,0 l/m 0 min 0 min 0 W/m 3,2 km/h (1 Bft) 97,87 %
28.09.2020 19:08 13,0 C 12,2 C 11,7 C 87 % 1011,1 hPa 0,0 l/m 0 min 0 min 0 W/m 3,2 km/h (1 Bft) 95,74 %
28.09.2020 19:10 13,0 C 12,2 C 11,7 C 87 % 1011,1 hPa 0,0 l/m 0 min 0 min 0 W/m 0,0 km/h (0 Bft) 97,83 %
28.09.2020 19:12 13,0 C 12,2 C 11,7 C 88 % 1011,1 hPa 0,0 l/m 0 min 0 min 0 W/m 3,2 km/h (1 Bft) 97,87 %
28.09.2020 19:14 13,0 C 12,2 C 11,7 C 88 % 1011,1 hPa 0,0 l/m 0 min 0 min 0 W/m 6,4 km/h (2 Bft) 97,87 %
28.09.2020 19:16 13,0 C 12,2 C 11,7 C 88 % 1011,2 hPa 0,0 l/m 0 min 0 min 0 W/m 3,2 km/h (1 Bft) 97,87 %
28.09.2020 19:18 13,0 C 12,2 C 11,7 C 88 % 1011,3 hPa 0,0 l/m 0 min 0 min 0 W/m 3,2 km/h (1 Bft) 97,44 %
28.09.2020 19:20 13,0 C 12,2 C 11,7 C 88 % 1011,3 hPa 0,0 l/m 0 min 0 min 0 W/m 0,0 km/h (0 Bft) 97,87 %
28.09.2020 19:22 13,0 C 12,2 C 11,7 C 88 % 1011,3 hPa 0,0 l/m 0 min 0 min 0 W/m 0,0 km/h (0 Bft) 97,87 %
28.09.2020 19:24 13,0 C 12,2 C 11,7 C 88 % 1011,3 hPa 0,0 l/m 0 min 0 min 0 W/m 0,0 km/h (0 Bft) 97,87 %
28.09.2020 19:26 13,0 C 12,2 C 11,7 C 88 % 1011,3 hPa 0,0 l/m 0 min 0 min 0 W/m 3,2 km/h (1 Bft) 97,83 %
28.09.2020 19:28 13,0 C 12,2 C 11,7 C 88 % 1011,3 hPa 0,0 l/m 0 min 0 min 0 W/m 3,2 km/h (1 Bft) 93,62 %
28.09.2020 19:30 13,0 C 12,2 C 11,7 C 88 % 1011,3 hPa 0,0 l/m 0 min 0 min 0 W/m 3,2 km/h (1 Bft) 97,87 %
28.09.2020 19:32 12,9 C 12,2 C 11,7 C 88 % 1011,3 hPa 0,0 l/m 0 min 0 min 0 W/m 0,0 km/h (0 Bft) 97,87 %
28.09.2020 19:34 12,9 C 12,2 C 11,7 C 88 % 1011,3 hPa 0,0 l/m 0 min 0 min 0 W/m 6,4 km/h (2 Bft) 97,87 %
28.09.2020 19:36 12,9 C 12,2 C 11,7 C 88 % 1011,3 hPa 0,0 l/m 0 min 0 min 0 W/m 6,4 km/h (2 Bft) 97,87 %
28.09.2020 19:38 12,9 C 12,2 C 11,7 C 88 % 1011,3 hPa 0,0 l/m 0 min 0 min 0 W/m 12,9 km/h (3 Bft) 97,83 %
28.09.2020 19:40 12,9 C 12,2 C 11,7 C 88 % 1011,3 hPa 0,0 l/m 0 min 0 min 0 W/m 6,4 km/h (2 Bft) 97,87 %
28.09.2020 19:42 12,9 C 12,2 C 11,7 C 88 % 1011,3 hPa 0,0 l/m 0 min 0 min 0 W/m 6,4 km/h (2 Bft) 95,74 %
28.09.2020 19:44 12,9 C 12,2 C 11,7 C 88 % 1011,3 hPa 0,0 l/m 0 min 0 min 0 W/m 6,4 km/h (2 Bft) 97,87 %
28.09.2020 19:46 12,9 C 12,2 C 11,7 C 88 % 1011,3 hPa 0,0 l/m 0 min 0 min 0 W/m 6,4 km/h (2 Bft) 95,74 %
28.09.2020 19:48 12,9 C 12,2 C 11,7 C 88 % 1011,4 hPa 0,0 l/m 0 min 0 min 0 W/m 6,4 km/h (2 Bft) 97,87 %
28.09.2020 19:50 12,9 C 12,2 C 11,7 C 88 % 1011,4 hPa 0,0 l/m 0 min 0 min 0 W/m 3,2 km/h (1 Bft) 97,83 %
28.09.2020 19:52 12,9 C 12,2 C 11,7 C 88 % 1011,4 hPa 0,0 l/m 0 min 0 min 0 W/m 0,0 km/h (0 Bft) 100,00 %
28.09.2020 19:54 12,9 C 12,2 C 11,7 C 88 % 1011,5 hPa 0,0 l/m 0 min 0 min 0 W/m 6,4 km/h (2 Bft) 100,00 %
28.09.2020 19:56 12,8 C 12,2 C 11,7 C 88 % 1011,4 hPa 0,0 l/m 0 min 0 min 0 W/m 6,4 km/h (2 Bft) 100,00 %
28.09.2020 19:58 12,8 C 12,2 C 11,7 C 88 % 1011,5 hPa 0,0 l/m 0 min 0 min 0 W/m 0,0 km/h (0 Bft) 97,87 %
28.09.2020 20:00 12,8 C 12,2 C 11,7 C 88 % 1011,5 hPa 0,0 l/m 0 min 0 min 0 W/m 3,2 km/h (1 Bft) 97,83 %
28.09.2020 20:02 12,8 C 12,2 C 11,7 C 88 % 1011,5 hPa 0,0 l/m 0 min 0 min 0 W/m 3,2 km/h (1 Bft) 97,87 %
28.09.2020 20:04 12,8 C 12,2 C 11,7 C 88 % 1011,5 hPa 0,0 l/m 0 min 0 min 0 W/m 6,4 km/h (2 Bft) 100,00 %
28.09.2020 20:06 12,8 C 12,2 C 11,7 C 88 % 1011,6 hPa 0,0 l/m 0 min 0 min 0 W/m 3,2 km/h (1 Bft) 97,87 %
28.09.2020 20:08 12,8 C 12,2 C 11,7 C 88 % 1011,5 hPa 0,0 l/m 0 min 0 min 0 W/m 0,0 km/h (0 Bft) 97,87 %
28.09.2020 20:10 12,8 C 12,2 C 11,7 C 88 % 1011,6 hPa 0,0 l/m 0 min 0 min 0 W/m 0,0 km/h (0 Bft) 95,74 %
28.09.2020 20:12 12,8 C 12,2 C 11,7 C 88 % 1011,6 hPa 0,0 l/m 0 min 0 min 0 W/m 0,0 km/h (0 Bft) 100,00 %
28.09.2020 20:14 12,8 C 12,2 C 11,7 C 88 % 1011,6 hPa 0,0 l/m 0 min 0 min 0 W/m 0,0 km/h (0 Bft) 100,00 %
28.09.2020 20:16 12,8 C 12,2 C 11,7 C 88 % 1011,7 hPa 0,0 l/m 0 min 0 min 0 W/m 0,0 km/h (0 Bft) 97,87 %
28.09.2020 20:18 12,8 C 12,2 C 11,7 C 88 % 1011,7 hPa 0,0 l/m 0 min 0 min 0 W/m 0,0 km/h (0 Bft) 100,00 %
28.09.2020 20:20 12,8 C 12,2 C 11,7 C 88 % 1011,8 hPa 0,0 l/m 0 min 0 min 0 W/m 0,0 km/h (0 Bft) 95,56 %
28.09.2020 20:22 12,8 C 12,2 C 11,7 C 88 % 1011,8 hPa 0,0 l/m 0 min 0 min 0 W/m 0,0 km/h (0 Bft) 97,83 %
28.09.2020 20:24 12,8 C 12,2 C 11,7 C 88 % 1011,8 hPa 0,0 l/m 0 min 0 min 0 W/m 0,0 km/h (0 Bft) 95,74 %
28.09.2020 20:26 12,8 C 12,2 C 11,7 C 88 % 1011,9 hPa 0,0 l/m 0 min 0 min 0 W/m 0,0 km/h (0 Bft) 95,74 %
28.09.2020 20:28 12,8 C 12,2 C 11,7 C 88 % 1011,9 hPa 0,0 l/m 0 min 0 min 0 W/m 0,0 km/h (0 Bft) 97,87 %
28.09.2020 20:30 12,8 C 12,2 C 11,7 C 88 % 1011,9 hPa 0,0 l/m 0 min 0 min 0 W/m 0,0 km/h (0 Bft) 98,28 %
28.09.2020 20:32 12,8 C 12,2 C 11,7 C 88 % 1011,9 hPa 0,0 l/m 0 min 0 min 0 W/m 0,0 km/h (0 Bft) 97,30 %
28.09.2020 20:34 12,8 C 12,2 C 11,7 C 88 % 1011,9 hPa 0,0 l/m 0 min 0 min 0 W/m 6,4 km/h (2 Bft) 95,65 %
28.09.2020 20:36 12,8 C 12,2 C 11,7 C 88 % 1011,9 hPa 0,0 l/m 0 min 0 min 0 W/m 0,0 km/h (0 Bft) 95,74 %
28.09.2020 20:38 12,8 C 12,2 C 11,7 C 88 % 1011,8 hPa 0,0 l/m 0 min 0 min 0 W/m 0,0 km/h (0 Bft) 97,87 %
28.09.2020 20:40 12,8 C 11,7 C 11,7 C 88 % 1011,8 hPa 0,0 l/m 0 min 0 min 0 W/m 0,0 km/h (0 Bft) 95,83 %
28.09.2020 20:42 12,8 C 11,7 C 11,7 C 88 % 1011,8 hPa 0,0 l/m 0 min 0 min 0 W/m 0,0 km/h (0 Bft) 97,87 %
28.09.2020 20:44 12,8 C 11,7 C 11,7 C 88 % 1011,9 hPa 0,0 l/m 0 min 0 min 0 W/m 0,0 km/h (0 Bft) 95,74 %
28.09.2020 20:46 12,8 C 11,7 C 11,7 C 88 % 1011,9 hPa 0,0 l/m 0 min 0 min 0 W/m 0,0 km/h (0 Bft) 95,65 %
28.09.2020 20:48 12,8 C 11,7 C 11,7 C 88 % 1011,9 hPa 0,0 l/m 0 min 0 min 0 W/m 0,0 km/h (0 Bft) 95,74 %
28.09.2020 20:50 12,7 C 11,7 C 11,1 C 88 % 1011,9 hPa 0,0 l/m 0 min 0 min 0 W/m 0,0 km/h (0 Bft) 95,74 %
28.09.2020 20:52 12,7 C 11,7 C 11,1 C 88 % 1012,0 hPa 0,0 l/m 0 min 0 min 0 W/m 0,0 km/h (0 Bft) 95,74 %
28.09.2020 20:54 12,7 C 11,7 C 11,1 C 88 % 1012,0 hPa 0,0 l/m 0 min 0 min 0 W/m 0,0 km/h (0 Bft) 95,74 %
28.09.2020 20:56 12,7 C 11,7 C 11,1 C 88 % 1011,9 hPa 0,0 l/m 0 min 0 min 0 W/m 0,0 km/h (0 Bft) 93,48 %
28.09.2020 20:58 12,7 C 11,7 C 11,1 C 88 % 1012,0 hPa 0,0 l/m 0 min 0 min 0 W/m 12,9 km/h (3 Bft) 95,74 %
28.09.2020 21:00 12,7 C 11,7 C 11,1 C 88 % 1011,9 hPa 0,0 l/m 0 min 0 min 0 W/m 3,2 km/h (1 Bft) 93,62 %
28.09.2020 21:02 12,7 C 11,7 C 11,1 C 88 % 1011,9 hPa 0,0 l/m 0 min 0 min 0 W/m 3,2 km/h (1 Bft) 95,83 %
28.09.2020 21:04 12,7 C 11,7 C 11,7 C 88 % 1011,9 hPa 0,0 l/m 0 min 0 min 0 W/m 0,0 km/h (0 Bft) 95,74 %
28.09.2020 21:06 12,7 C 11,7 C 11,7 C 88 % 1011,9 hPa 0,0 l/m 0 min 0 min 0 W/m 3,2 km/h (1 Bft) 97,87 %
28.09.2020 21:08 12,7 C 11,7 C 11,1 C 88 % 1011,9 hPa 0,0 l/m 0 min 0 min 0 W/m 6,4 km/h (2 Bft) 95,65 %
28.09.2020 21:10 12,7 C 11,7 C 11,1 C 88 % 1012,0 hPa 0,0 l/m 0 min 0 min 0 W/m 6,4 km/h (2 Bft) 93,62 %
28.09.2020 21:12 12,7 C 11,7 C 11,1 C 88 % 1012,0 hPa 0,0 l/m 0 min 0 min 0 W/m 3,2 km/h (1 Bft) 50,00 %
28.09.2020 21:14 12,7 C 11,7 C 11,1 C 88 % 1012,0 hPa 0,0 l/m 0 min 0 min 0 W/m 3,2 km/h (1 Bft) 95,74 %
28.09.2020 21:16 12,7 C 11,7 C 11,1 C 88 % 1012,0 hPa 0,0 l/m 0 min 0 min 0 W/m 3,2 km/h (1 Bft) 97,87 %
28.09.2020 21:18 12,7 C 11,7 C 11,1 C 88 % 1012,0 hPa 0,0 l/m 0 min 0 min 0 W/m 6,4 km/h (2 Bft) 95,74 %
28.09.2020 21:20 12,7 C 11,7 C 11,1 C 88 % 1012,0 hPa 0,0 l/m 0 min 0 min 0 W/m 6,4 km/h (2 Bft) 95,65 %
28.09.2020 21:22 12,7 C 11,7 C 11,1 C 89 % 1012,0 hPa 0,0 l/m 0 min 0 min 0 W/m 6,4 km/h (2 Bft) 97,87 %
28.09.2020 21:24 12,7 C 11,7 C 11,1 C 89 % 1012,0 hPa 0,0 l/m 0 min 0 min 0 W/m 6,4 km/h (2 Bft) 97,87 %
28.09.2020 21:26 12,7 C 11,7 C 11,1 C 89 % 1012,0 hPa 0,0 l/m 0 min 0 min 0 W/m 6,4 km/h (2 Bft) 95,74 %
28.09.2020 21:28 12,7 C 11,7 C 11,1 C 89 % 1012,0 hPa 0,0 l/m 0 min 0 min 0 W/m 6,4 km/h (2 Bft) 97,87 %
28.09.2020 21:30 12,7 C 11,7 C 11,1 C 89 % 1012,0 hPa 0,0 l/m 0 min 0 min 0 W/m 6,4 km/h (2 Bft) 95,74 %
28.09.2020 21:32 12,6 C 11,7 C 11,1 C 89 % 1012,0 hPa 0,0 l/m 0 min 0 min 0 W/m 12,9 km/h (3 Bft) 97,87 %
28.09.2020 21:34 12,6 C 11,7 C 11,1 C 89 % 1012,0 hPa 0,0 l/m 0 min 0 min 0 W/m 6,4 km/h (2 Bft) 100,00 %
28.09.2020 21:36 12,6 C 11,7 C 11,1 C 89 % 1012,0 hPa 0,0 l/m 0 min 0 min 0 W/m 0,0 km/h (0 Bft) 100,00 %
28.09.2020 21:38 12,6 C 11,7 C 11,1 C 89 % 1012,0 hPa 0,0 l/m 0 min 0 min 0 W/m 6,4 km/h (2 Bft) 100,00 %
28.09.2020 21:40 12,6 C 11,7 C 11,1 C 89 % 1012,1 hPa 0,0 l/m 0 min 0 min 0 W/m 6,4 km/h (2 Bft) 97,87 %
28.09.2020 21:42 12,6 C 11,7 C 11,1 C 89 % 1012,1 hPa 0,0 l/m 0 min 0 min 0 W/m 3,2 km/h (1 Bft) 97,83 %
28.09.2020 21:44 12,6 C 11,7 C 11,1 C 89 % 1012,1 hPa 0,0 l/m 0 min 0 min 0 W/m 3,2 km/h (1 Bft) 100,00 %
28.09.2020 21:46 12,6 C 11,7 C 11,1 C 89 % 1012,2 hPa 0,0 l/m 0 min 0 min 0 W/m 6,4 km/h (2 Bft) 95,74 %
28.09.2020 21:48 12,6 C 11,7 C 11,1 C 90 % 1012,1 hPa 0,0 l/m 0 min 0 min 0 W/m 6,4 km/h (2 Bft) 97,87 %
28.09.2020 21:50 12,6 C 11,7 C 11,1 C 90 % 1012,2 hPa 0,0 l/m 0 min 0 min 0 W/m 12,9 km/h (3 Bft) 97,87 %
28.09.2020 21:52 12,6 C 11,7 C 11,1 C 90 % 1012,2 hPa 0,0 l/m 0 min 0 min 0 W/m 6,4 km/h (2 Bft) 97,92 %
28.09.2020 21:54 12,6 C 11,7 C 11,1 C 90 % 1012,3 hPa 0,0 l/m 0 min 0 min 0 W/m 0,0 km/h (0 Bft) 95,74 %
28.09.2020 21:56 12,6 C 11,7 C 11,1 C 90 % 1012,3 hPa 0,0 l/m 0 min 0 min 0 W/m 0,0 km/h (0 Bft) 100,00 %
28.09.2020 21:58 12,6 C 11,7 C 11,1 C 90 % 1012,3 hPa 0,0 l/m 0 min 0 min 0 W/m 0,0 km/h (0 Bft) 97,87 %
28.09.2020 22:00 12,6 C 11,7 C 11,1 C 90 % 1012,4 hPa 0,0 l/m 0 min 0 min 0 W/m 0,0 km/h (0 Bft) 97,87 %
28.09.2020 22:02 12,6 C 11,7 C 11,1 C 90 % 1012,4 hPa 0,0 l/m 0 min 0 min 0 W/m 0,0 km/h (0 Bft) 96,30 %
28.09.2020 22:04 12,6 C 11,7 C 11,1 C 90 % 1012,4 hPa 0,0 l/m 0 min 0 min 0 W/m 0,0 km/h (0 Bft) 97,14 %
28.09.2020 22:06 12,6 C 11,7 C 11,1 C 90 % 1012,4 hPa 0,0 l/m 0 min 0 min 0 W/m 0,0 km/h (0 Bft) 97,83 %
28.09.2020 22:08 12,5 C 11,7 C 11,1 C 90 % 1012,5 hPa 0,0 l/m 0 min 0 min 0 W/m 0,0 km/h (0 Bft) 95,74 %
28.09.2020 22:10 12,5 C 11,7 C 11,1 C 90 % 1012,4 hPa 0,0 l/m 0 min 0 min 0 W/m 0,0 km/h (0 Bft) 98,00 %
28.09.2020 22:12 12,5 C 11,7 C 11,1 C 90 % 1012,4 hPa 0,0 l/m 0 min 0 min 0 W/m 0,0 km/h (0 Bft) 97,87 %
28.09.2020 22:14 12,5 C 11,7 C 11,1 C 90 % 1012,4 hPa 0,0 l/m 0 min 0 min 0 W/m 6,4 km/h (2 Bft) 95,74 %
28.09.2020 22:16 12,5 C 11,7 C 11,1 C 90 % 1012,5 hPa 0,0 l/m 0 min 0 min 0 W/m 6,4 km/h (2 Bft) 97,87 %
28.09.2020 22:18 12,5 C 11,7 C 11,1 C 90 % 1012,5 hPa 0,0 l/m 0 min 0 min 0 W/m 6,4 km/h (2 Bft) 97,83 %
28.09.2020 22:20 12,4 C 11,7 C 11,1 C 90 % 1012,5 hPa 0,0 l/m 0 min 0 min 0 W/m 3,2 km/h (1 Bft) 97,87 %
28.09.2020 22:22 12,4 C 11,7 C 11,1 C 90 % 1012,5 hPa 0,0 l/m 0 min 0 min 0 W/m 0,0 km/h (0 Bft) 95,74 %
28.09.2020 22:24 12,4 C 11,7 C 11,1 C 90 % 1012,5 hPa 0,0 l/m 0 min 0 min 0 W/m 3,2 km/h (1 Bft) 97,87 %
28.09.2020 22:26 12,4 C 11,7 C 11,1 C 90 % 1012,5 hPa 0,0 l/m 0 min 0 min 0 W/m 6,4 km/h (2 Bft) 97,87 %
28.09.2020 22:28 12,4 C 11,7 C 11,1 C 90 % 1012,5 hPa 0,0 l/m 0 min 0 min 0 W/m 12,9 km/h (3 Bft) 97,87 %
28.09.2020 22:30 12,4 C 11,7 C 11,1 C 90 % 1012,5 hPa 0,0 l/m 0 min 0 min 0 W/m 6,4 km/h (2 Bft) 97,83 %
28.09.2020 22:32 12,4 C 11,7 C 11,1 C 90 % 1012,5 hPa 0,0 l/m 0 min 0 min 0 W/m 12,9 km/h (3 Bft) 100,00 %
28.09.2020 22:34 12,4 C 11,7 C 11,1 C 90 % 1012,5 hPa 0,0 l/m 0 min 0 min 0 W/m 6,4 km/h (2 Bft) 100,00 %
28.09.2020 22:36 12,4 C 11,7 C 11,1 C 90 % 1012,5 hPa 0,0 l/m 0 min 0 min 0 W/m 0,0 km/h (0 Bft) 100,00 %
28.09.2020 22:38 12,4 C 11,7 C 11,1 C 90 % 1012,4 hPa 0,0 l/m 0 min 0 min 0 W/m 0,0 km/h (0 Bft) 97,87 %
28.09.2020 22:40 12,4 C 11,7 C 11,1 C 90 % 1012,4 hPa 0,0 l/m 0 min 0 min 0 W/m 12,9 km/h (3 Bft) 100,00 %
28.09.2020 22:42 12,3 C 11,7 C 11,1 C 90 % 1012,4 hPa 0,0 l/m 0 min 0 min 0 W/m 12,9 km/h (3 Bft) 100,00 %
28.09.2020 22:44 12,3 C 11,7 C 11,1 C 91 % 1012,4 hPa 0,0 l/m 0 min 0 min 0 W/m 12,9 km/h (3 Bft) 100,00 %
28.09.2020 22:46 12,3 C 11,7 C 11,1 C 91 % 1012,4 hPa 0,0 l/m 0 min 0 min 0 W/m 3,2 km/h (1 Bft) 97,87 %
28.09.2020 22:48 12,3 C 11,7 C 11,1 C 91 % 1012,5 hPa 0,0 l/m 0 min 0 min 0 W/m 12,9 km/h (3 Bft) 97,87 %
28.09.2020 22:50 12,3 C 11,1 C 11,1 C 91 % 1012,5 hPa 0,0 l/m 0 min 0 min 0 W/m 12,9 km/h (3 Bft) 100,00 %
28.09.2020 22:52 12,3 C 11,1 C 11,1 C 91 % 1012,5 hPa 0,0 l/m 0 min 0 min 0 W/m 6,4 km/h (2 Bft) 100,00 %
28.09.2020 22:54 12,3 C 11,1 C 11,1 C 91 % 1012,6 hPa 0,0 l/m 0 min 0 min 0 W/m 9,7 km/h (2 Bft) 100,00 %
28.09.2020 22:56 12,2 C 11,1 C 11,1 C 91 % 1012,6 hPa 0,0 l/m 0 min 0 min 0 W/m 16,1 km/h (3 Bft) 100,00 %
28.09.2020 22:58 12,2 C 11,1 C 11,1 C 91 % 1012,5 hPa 0,0 l/m 0 min 0 min 0 W/m 12,9 km/h (3 Bft) 100,00 %
28.09.2020 23:00 12,2 C 11,1 C 11,1 C 91 % 1012,6 hPa 0,0 l/m 0 min 0 min 0 W/m 12,9 km/h (3 Bft) 100,00 %
28.09.2020 23:02 12,2 C 11,1 C 11,1 C 91 % 1012,7 hPa 0,0 l/m 0 min 0 min 0 W/m 6,4 km/h (2 Bft) 97,87 %
28.09.2020 23:04 12,2 C 11,1 C 11,1 C 90 % 1012,7 hPa 0,0 l/m 0 min 0 min 0 W/m 12,9 km/h (3 Bft) 100,00 %
28.09.2020 23:06 12,2 C 11,1 C 11,1 C 90 % 1012,7 hPa 0,0 l/m 0 min 0 min 0 W/m 6,4 km/h (2 Bft) 100,00 %
28.09.2020 23:08 12,2 C 11,1 C 11,1 C 90 % 1012,7 hPa 0,0 l/m 0 min 0 min 0 W/m 6,4 km/h (2 Bft) 100,00 %
28.09.2020 23:10 12,2 C 11,1 C 11,1 C 90 % 1012,7 hPa 0,0 l/m 0 min 0 min 0 W/m 6,4 km/h (2 Bft) 100,00 %
28.09.2020 23:12 12,1 C 11,1 C 11,1 C 90 % 1012,7 hPa 0,0 l/m 0 min 0 min 0 W/m 6,4 km/h (2 Bft) 100,00 %
28.09.2020 23:14 12,1 C 11,1 C 11,1 C 90 % 1012,7 hPa 0,0 l/m 0 min 0 min 0 W/m 16,1 km/h (3 Bft) 97,87 %
28.09.2020 23:16 12,1 C 11,1 C 11,1 C 90 % 1012,7 hPa 0,0 l/m 0 min 0 min 0 W/m 12,9 km/h (3 Bft) 100,00 %
28.09.2020 23:18 12,1 C 11,1 C 11,1 C 90 % 1012,7 hPa 0,0 l/m 0 min 0 min 0 W/m 6,4 km/h (2 Bft) 100,00 %
28.09.2020 23:20 12,1 C 11,1 C 11,1 C 90 % 1012,8 hPa 0,0 l/m 0 min 0 min 0 W/m 3,2 km/h (1 Bft) 100,00 %
28.09.2020 23:22 12,1 C 11,1 C 11,1 C 90 % 1012,8 hPa 0,0 l/m 0 min 0 min 0 W/m 6,4 km/h (2 Bft) 97,78 %
28.09.2020 23:24 12,1 C 11,1 C 11,1 C 90 % 1012,8 hPa 0,0 l/m 0 min 0 min 0 W/m 3,2 km/h (1 Bft) 100,00 %
28.09.2020 23:26 12,1 C 11,1 C 11,1 C 90 % 1012,8 hPa 0,0 l/m 0 min 0 min 0 W/m 6,4 km/h (2 Bft) 100,00 %
28.09.2020 23:28 12,1 C 11,1 C 11,1 C 90 % 1012,9 hPa 0,0 l/m 0 min 0 min 0 W/m 0,0 km/h (0 Bft) 100,00 %
28.09.2020 23:30 12,1 C 11,1 C 11,1 C 90 % 1012,9 hPa 0,0 l/m 0 min 0 min 0 W/m 0,0 km/h (0 Bft) 97,87 %
28.09.2020 23:32 12,1 C 11,1 C 11,1 C 90 % 1012,9 hPa 0,0 l/m 0 min 0 min 0 W/m 0,0 km/h (0 Bft) 97,87 %
28.09.2020 23:34 12,1 C 11,1 C 11,1 C 90 % 1012,8 hPa 0,0 l/m 0 min 0 min 0 W/m 6,4 km/h (2 Bft) 97,87 %
28.09.2020 23:36 12,1 C 11,1 C 11,1 C 90 % 1012,8 hPa 0,0 l/m 0 min 0 min 0 W/m 6,4 km/h (2 Bft) 95,74 %
28.09.2020 23:38 12,0 C 11,1 C 11,1 C 90 % 1012,8 hPa 0,0 l/m 0 min 0 min 0 W/m 12,9 km/h (3 Bft) 95,74 %
28.09.2020 23:40 12,0 C 11,1 C 11,1 C 90 % 1012,9 hPa 0,0 l/m 0 min 0 min 0 W/m 12,9 km/h (3 Bft) 97,83 %
28.09.2020 23:42 12,0 C 11,1 C 11,1 C 90 % 1012,9 hPa 0,0 l/m 0 min 0 min 0 W/m 6,4 km/h (2 Bft) 97,87 %
28.09.2020 23:44 12,0 C 11,1 C 11,1 C 90 % 1012,9 hPa 0,0 l/m 0 min 0 min 0 W/m 6,4 km/h (2 Bft) 97,87 %
28.09.2020 23:46 12,0 C 11,1 C 11,1 C 90 % 1012,8 hPa 0,0 l/m 0 min 0 min 0 W/m 6,4 km/h (2 Bft) 97,87 %
28.09.2020 23:48 12,0 C 11,1 C 11,1 C 90 % 1012,9 hPa 0,0 l/m 0 min 0 min 0 W/m 6,4 km/h (2 Bft) 97,87 %
28.09.2020 23:50 12,0 C 11,1 C 11,1 C 90 % 1012,9 hPa 0,0 l/m 0 min 0 min 0 W/m 3,2 km/h (1 Bft) 97,83 %
28.09.2020 23:52 12,0 C 11,1 C 11,1 C 90 % 1012,9 hPa 0,0 l/m 0 min 0 min 0 W/m 16,1 km/h (3 Bft) 97,87 %
28.09.2020 23:54 12,0 C 11,1 C 11,1 C 90 % 1012,9 hPa 0,0 l/m 0 min 0 min 0 W/m 3,2 km/h (1 Bft) 97,87 %
28.09.2020 23:56 12,0 C 11,1 C 11,1 C 90 % 1012,9 hPa 0,0 l/m 0 min 0 min 0 W/m 3,2 km/h (1 Bft) 93,62 %
28.09.2020 23:58 12,0 C 11,1 C 11,1 C 90 % 1012,9 hPa 0,0 l/m 0 min 0 min 0 W/m 0,0 km/h (0 Bft) 97,87 %
_ Min-Zeit 00:00 00:00 00:00 15:46 05:38 - - - - 00:00 21:12
Minimum _ 10,2 C 10,0 C 9,4 C 84 % 1007,9 hPa - - - - 0,0 km/h (0 Bft) 50,00 %
_ Max-Zeit 18:32 10:20 10:14 05:34 23:28 12:58 00:00 00:22 10:20 14:20 00:08
Maximum _ 13,1 C 13,3 C 11,7 C 97 % 1012,9 hPa 0,2 l/m 0 min 2 min 160 W/m 32,2 km/h
S-SO (5 Bft)
100,00 %
Durchschnitt _ 12,0 C 11,5 C 10,8 C 92 % 1009,9 hPa #0,2 l/m #0 min. #22 min. 62 W/m 6,0 km/h (2 Bft) 97,41 %
© 2020 W. Hausmann